<?xml version="1.0" encoding="UTF-8" standalone="no" ?>
<gpx xmlns="http://www.topografix.com/GPX/1/1" xmlns:xsi="http://www.w3.org/2001/XMLSchema-instance" xsi:schemaLocation="http://www.topografix.com/GPX/1/1 http://www.topografix.com/GPX/1/1/gpx.xsd" version="1.1" creator="VisuGPX - https://www.visugpx.com">
  <metadata>
    <name>83-D-Cotignac</name>
    <desc><![CDATA[83-D-Cotignac : cabanon Sara                       ]]></desc>
  </metadata>
  <trk>
    <name><![CDATA[2018-01-07-D-cotignac]]></name>
    <trkseg>
      <trkpt lat="43.52473" lon="6.15006">
        <ele>221.9</ele>
        <time>2018-01-07T08:41:10Z</time>
      </trkpt>
      <trkpt lat="43.52473" lon="6.15007">
        <ele>221.2</ele>
        <time>2018-01-07T08:41:11Z</time>
      </trkpt>
      <trkpt lat="43.52483" lon="6.15009">
        <ele>208.7</ele>
        <time>2018-01-07T08:41:55Z</time>
      </trkpt>
      <trkpt lat="43.52492" lon="6.15008">
        <ele>208.8</ele>
        <time>2018-01-07T08:42:05Z</time>
      </trkpt>
      <trkpt lat="43.52498" lon="6.14999">
        <ele>209.3</ele>
        <time>2018-01-07T08:42:17Z</time>
      </trkpt>
      <trkpt lat="43.52496" lon="6.14987">
        <ele>209.7</ele>
        <time>2018-01-07T08:44:29Z</time>
      </trkpt>
      <trkpt lat="43.52505" lon="6.14981">
        <ele>210.1</ele>
        <time>2018-01-07T08:44:51Z</time>
      </trkpt>
      <trkpt lat="43.52513" lon="6.14973">
        <ele>210.2</ele>
        <time>2018-01-07T08:44:58Z</time>
      </trkpt>
      <trkpt lat="43.52521" lon="6.14966">
        <ele>210.6</ele>
        <time>2018-01-07T08:45:05Z</time>
      </trkpt>
      <trkpt lat="43.5253" lon="6.14959">
        <ele>210.3</ele>
        <time>2018-01-07T08:45:18Z</time>
      </trkpt>
      <trkpt lat="43.52536" lon="6.14949">
        <ele>210</ele>
        <time>2018-01-07T08:45:33Z</time>
      </trkpt>
      <trkpt lat="43.5254" lon="6.14938">
        <ele>209.6</ele>
        <time>2018-01-07T08:45:46Z</time>
      </trkpt>
      <trkpt lat="43.52543" lon="6.14925">
        <ele>209.4</ele>
        <time>2018-01-07T08:45:53Z</time>
      </trkpt>
      <trkpt lat="43.52551" lon="6.14919">
        <ele>209.1</ele>
        <time>2018-01-07T08:46:02Z</time>
      </trkpt>
      <trkpt lat="43.52556" lon="6.14907">
        <ele>208.6</ele>
        <time>2018-01-07T08:46:13Z</time>
      </trkpt>
      <trkpt lat="43.52546" lon="6.14908">
        <ele>208.6</ele>
        <time>2018-01-07T08:46:36Z</time>
      </trkpt>
      <trkpt lat="43.52537" lon="6.14912">
        <ele>209.5</ele>
        <time>2018-01-07T08:46:49Z</time>
      </trkpt>
      <trkpt lat="43.52529" lon="6.1492">
        <ele>210.1</ele>
        <time>2018-01-07T08:46:58Z</time>
      </trkpt>
      <trkpt lat="43.52522" lon="6.14928">
        <ele>210.9</ele>
        <time>2018-01-07T08:47:07Z</time>
      </trkpt>
      <trkpt lat="43.52512" lon="6.14927">
        <ele>212.3</ele>
        <time>2018-01-07T08:47:20Z</time>
      </trkpt>
      <trkpt lat="43.52504" lon="6.14923">
        <ele>213.7</ele>
        <time>2018-01-07T08:47:31Z</time>
      </trkpt>
      <trkpt lat="43.52494" lon="6.14924">
        <ele>215.6</ele>
        <time>2018-01-07T08:47:45Z</time>
      </trkpt>
      <trkpt lat="43.52487" lon="6.14932">
        <ele>217.1</ele>
        <time>2018-01-07T08:47:58Z</time>
      </trkpt>
      <trkpt lat="43.52477" lon="6.14933">
        <ele>217.5</ele>
        <time>2018-01-07T08:48:05Z</time>
      </trkpt>
      <trkpt lat="43.52468" lon="6.14935">
        <ele>217.8</ele>
        <time>2018-01-07T08:48:14Z</time>
      </trkpt>
      <trkpt lat="43.52459" lon="6.14933">
        <ele>218.5</ele>
        <time>2018-01-07T08:48:23Z</time>
      </trkpt>
      <trkpt lat="43.5245" lon="6.14927">
        <ele>218.9</ele>
        <time>2018-01-07T08:48:30Z</time>
      </trkpt>
      <trkpt lat="43.52444" lon="6.14918">
        <ele>219.3</ele>
        <time>2018-01-07T08:48:41Z</time>
      </trkpt>
      <trkpt lat="43.52444" lon="6.14904">
        <ele>220.2</ele>
        <time>2018-01-07T08:48:50Z</time>
      </trkpt>
      <trkpt lat="43.52446" lon="6.14892">
        <ele>221.2</ele>
        <time>2018-01-07T08:49:01Z</time>
      </trkpt>
      <trkpt lat="43.52448" lon="6.14879">
        <ele>222.4</ele>
        <time>2018-01-07T08:49:11Z</time>
      </trkpt>
      <trkpt lat="43.52442" lon="6.14867">
        <ele>223.6</ele>
        <time>2018-01-07T08:49:28Z</time>
      </trkpt>
      <trkpt lat="43.52439" lon="6.14855">
        <ele>224.7</ele>
        <time>2018-01-07T08:49:39Z</time>
      </trkpt>
      <trkpt lat="43.52436" lon="6.14844">
        <ele>225.9</ele>
        <time>2018-01-07T08:49:49Z</time>
      </trkpt>
      <trkpt lat="43.52433" lon="6.14832">
        <ele>227.5</ele>
        <time>2018-01-07T08:50:01Z</time>
      </trkpt>
      <trkpt lat="43.5243" lon="6.14819">
        <ele>229.3</ele>
        <time>2018-01-07T08:50:13Z</time>
      </trkpt>
      <trkpt lat="43.52423" lon="6.14812">
        <ele>231.3</ele>
        <time>2018-01-07T08:50:35Z</time>
      </trkpt>
      <trkpt lat="43.5242" lon="6.14801">
        <ele>232.5</ele>
        <time>2018-01-07T08:50:50Z</time>
      </trkpt>
      <trkpt lat="43.52415" lon="6.1479">
        <ele>234.1</ele>
        <time>2018-01-07T08:51:02Z</time>
      </trkpt>
      <trkpt lat="43.52413" lon="6.14777">
        <ele>235.6</ele>
        <time>2018-01-07T08:51:15Z</time>
      </trkpt>
      <trkpt lat="43.52407" lon="6.14767">
        <ele>237</ele>
        <time>2018-01-07T08:51:27Z</time>
      </trkpt>
      <trkpt lat="43.52404" lon="6.14754">
        <ele>238.9</ele>
        <time>2018-01-07T08:51:39Z</time>
      </trkpt>
      <trkpt lat="43.52396" lon="6.14746">
        <ele>241.1</ele>
        <time>2018-01-07T08:51:52Z</time>
      </trkpt>
      <trkpt lat="43.52391" lon="6.14735">
        <ele>243.1</ele>
        <time>2018-01-07T08:52:12Z</time>
      </trkpt>
      <trkpt lat="43.52382" lon="6.14735">
        <ele>243.8</ele>
        <time>2018-01-07T08:52:30Z</time>
      </trkpt>
      <trkpt lat="43.52374" lon="6.14725">
        <ele>244.1</ele>
        <time>2018-01-07T08:52:41Z</time>
      </trkpt>
      <trkpt lat="43.52369" lon="6.14715">
        <ele>247.7</ele>
        <time>2018-01-07T08:53:05Z</time>
      </trkpt>
      <trkpt lat="43.52366" lon="6.14703">
        <ele>252.2</ele>
        <time>2018-01-07T08:53:32Z</time>
      </trkpt>
      <trkpt lat="43.5236" lon="6.14694">
        <ele>256</ele>
        <time>2018-01-07T08:53:55Z</time>
      </trkpt>
      <trkpt lat="43.52352" lon="6.14688">
        <ele>259.2</ele>
        <time>2018-01-07T08:54:19Z</time>
      </trkpt>
      <trkpt lat="43.52343" lon="6.14689">
        <ele>260</ele>
        <time>2018-01-07T08:54:31Z</time>
      </trkpt>
      <trkpt lat="43.52335" lon="6.14683">
        <ele>262.3</ele>
        <time>2018-01-07T08:55:09Z</time>
      </trkpt>
      <trkpt lat="43.52326" lon="6.14688">
        <ele>264.6</ele>
        <time>2018-01-07T08:55:28Z</time>
      </trkpt>
      <trkpt lat="43.52317" lon="6.14692">
        <ele>265.4</ele>
        <time>2018-01-07T08:55:37Z</time>
      </trkpt>
      <trkpt lat="43.52309" lon="6.14698">
        <ele>268.4</ele>
        <time>2018-01-07T08:56:26Z</time>
      </trkpt>
      <trkpt lat="43.523" lon="6.14703">
        <ele>269.3</ele>
        <time>2018-01-07T08:56:35Z</time>
      </trkpt>
      <trkpt lat="43.52291" lon="6.14704">
        <ele>271.1</ele>
        <time>2018-01-07T08:56:50Z</time>
      </trkpt>
      <trkpt lat="43.52282" lon="6.14706">
        <ele>271.4</ele>
        <time>2018-01-07T08:56:59Z</time>
      </trkpt>
      <trkpt lat="43.52273" lon="6.14708">
        <ele>272.4</ele>
        <time>2018-01-07T08:57:08Z</time>
      </trkpt>
      <trkpt lat="43.52264" lon="6.14711">
        <ele>274.2</ele>
        <time>2018-01-07T08:57:24Z</time>
      </trkpt>
      <trkpt lat="43.52255" lon="6.14716">
        <ele>276</ele>
        <time>2018-01-07T08:57:41Z</time>
      </trkpt>
      <trkpt lat="43.52246" lon="6.14714">
        <ele>276.8</ele>
        <time>2018-01-07T08:57:58Z</time>
      </trkpt>
      <trkpt lat="43.52238" lon="6.1471">
        <ele>277.1</ele>
        <time>2018-01-07T08:58:08Z</time>
      </trkpt>
      <trkpt lat="43.52228" lon="6.14706">
        <ele>278.8</ele>
        <time>2018-01-07T09:00:21Z</time>
      </trkpt>
      <trkpt lat="43.52219" lon="6.14708">
        <ele>279.1</ele>
        <time>2018-01-07T09:00:32Z</time>
      </trkpt>
      <trkpt lat="43.5221" lon="6.14705">
        <ele>279.7</ele>
        <time>2018-01-07T09:00:42Z</time>
      </trkpt>
      <trkpt lat="43.522" lon="6.14708">
        <ele>280</ele>
        <time>2018-01-07T09:00:56Z</time>
      </trkpt>
      <trkpt lat="43.52193" lon="6.14717">
        <ele>280.2</ele>
        <time>2018-01-07T09:01:05Z</time>
      </trkpt>
      <trkpt lat="43.52183" lon="6.14714">
        <ele>281.5</ele>
        <time>2018-01-07T09:01:19Z</time>
      </trkpt>
      <trkpt lat="43.52173" lon="6.14717">
        <ele>282.9</ele>
        <time>2018-01-07T09:01:31Z</time>
      </trkpt>
      <trkpt lat="43.52164" lon="6.14715">
        <ele>284.5</ele>
        <time>2018-01-07T09:01:45Z</time>
      </trkpt>
      <trkpt lat="43.52154" lon="6.14718">
        <ele>286.8</ele>
        <time>2018-01-07T09:02:07Z</time>
      </trkpt>
      <trkpt lat="43.52145" lon="6.1472">
        <ele>287.9</ele>
        <time>2018-01-07T09:02:21Z</time>
      </trkpt>
      <trkpt lat="43.52136" lon="6.14724">
        <ele>289.7</ele>
        <time>2018-01-07T09:02:44Z</time>
      </trkpt>
      <trkpt lat="43.52128" lon="6.14731">
        <ele>290.8</ele>
        <time>2018-01-07T09:02:57Z</time>
      </trkpt>
      <trkpt lat="43.52119" lon="6.14729">
        <ele>292.2</ele>
        <time>2018-01-07T09:03:13Z</time>
      </trkpt>
      <trkpt lat="43.5211" lon="6.14733">
        <ele>293.5</ele>
        <time>2018-01-07T09:03:29Z</time>
      </trkpt>
      <trkpt lat="43.52101" lon="6.14738">
        <ele>294.8</ele>
        <time>2018-01-07T09:03:47Z</time>
      </trkpt>
      <trkpt lat="43.52091" lon="6.1473">
        <ele>297.1</ele>
        <time>2018-01-07T09:04:08Z</time>
      </trkpt>
      <trkpt lat="43.52083" lon="6.14736">
        <ele>297.9</ele>
        <time>2018-01-07T09:04:13Z</time>
      </trkpt>
      <trkpt lat="43.52073" lon="6.14737">
        <ele>299.8</ele>
        <time>2018-01-07T09:04:29Z</time>
      </trkpt>
      <trkpt lat="43.52064" lon="6.14737">
        <ele>300.8</ele>
        <time>2018-01-07T09:04:44Z</time>
      </trkpt>
      <trkpt lat="43.52056" lon="6.14743">
        <ele>304.1</ele>
        <time>2018-01-07T09:05:08Z</time>
      </trkpt>
      <trkpt lat="43.52046" lon="6.14739">
        <ele>305.1</ele>
        <time>2018-01-07T09:05:23Z</time>
      </trkpt>
      <trkpt lat="43.5204" lon="6.1473">
        <ele>306.8</ele>
        <time>2018-01-07T09:05:36Z</time>
      </trkpt>
      <trkpt lat="43.52034" lon="6.14739">
        <ele>309.7</ele>
        <time>2018-01-07T09:06:05Z</time>
      </trkpt>
      <trkpt lat="43.52025" lon="6.14742">
        <ele>309.3</ele>
        <time>2018-01-07T09:06:44Z</time>
      </trkpt>
      <trkpt lat="43.52034" lon="6.1474">
        <ele>309.2</ele>
        <time>2018-01-07T09:07:42Z</time>
      </trkpt>
      <trkpt lat="43.52043" lon="6.1474">
        <ele>309.4</ele>
        <time>2018-01-07T09:07:53Z</time>
      </trkpt>
      <trkpt lat="43.52052" lon="6.14741">
        <ele>310</ele>
        <time>2018-01-07T09:08:05Z</time>
      </trkpt>
      <trkpt lat="43.52059" lon="6.14733">
        <ele>310.4</ele>
        <time>2018-01-07T09:08:17Z</time>
      </trkpt>
      <trkpt lat="43.52059" lon="6.1472">
        <ele>311</ele>
        <time>2018-01-07T09:08:39Z</time>
      </trkpt>
      <trkpt lat="43.52062" lon="6.14708">
        <ele>313.7</ele>
        <time>2018-01-07T09:09:01Z</time>
      </trkpt>
      <trkpt lat="43.52058" lon="6.14697">
        <ele>315.7</ele>
        <time>2018-01-07T09:09:12Z</time>
      </trkpt>
      <trkpt lat="43.52063" lon="6.14671">
        <ele>317</ele>
        <time>2018-01-07T09:10:16Z</time>
      </trkpt>
      <trkpt lat="43.52068" lon="6.14652">
        <ele>319</ele>
        <time>2018-01-07T09:10:57Z</time>
      </trkpt>
      <trkpt lat="43.52047" lon="6.14659">
        <ele>319</ele>
        <time>2018-01-07T09:11:03Z</time>
      </trkpt>
      <trkpt lat="43.5204" lon="6.14668">
        <ele>318.6</ele>
        <time>2018-01-07T09:11:15Z</time>
      </trkpt>
      <trkpt lat="43.52024" lon="6.14679">
        <ele>318</ele>
        <time>2018-01-07T09:12:23Z</time>
      </trkpt>
      <trkpt lat="43.52036" lon="6.14698">
        <ele>318</ele>
        <time>2018-01-07T09:13:48Z</time>
      </trkpt>
      <trkpt lat="43.52045" lon="6.14691">
        <ele>318.7</ele>
        <time>2018-01-07T09:14:19Z</time>
      </trkpt>
      <trkpt lat="43.52054" lon="6.14694">
        <ele>319</ele>
        <time>2018-01-07T09:14:41Z</time>
      </trkpt>
      <trkpt lat="43.5206" lon="6.14685">
        <ele>319.9</ele>
        <time>2018-01-07T09:15:00Z</time>
      </trkpt>
      <trkpt lat="43.52061" lon="6.14671">
        <ele>321.5</ele>
        <time>2018-01-07T09:15:25Z</time>
      </trkpt>
      <trkpt lat="43.52065" lon="6.1466">
        <ele>322.6</ele>
        <time>2018-01-07T09:15:57Z</time>
      </trkpt>
      <trkpt lat="43.52074" lon="6.14655">
        <ele>322.8</ele>
        <time>2018-01-07T09:16:16Z</time>
      </trkpt>
      <trkpt lat="43.52065" lon="6.14647">
        <ele>322.9</ele>
        <time>2018-01-07T09:16:26Z</time>
      </trkpt>
      <trkpt lat="43.5206" lon="6.14634">
        <ele>322.8</ele>
        <time>2018-01-07T09:16:34Z</time>
      </trkpt>
      <trkpt lat="43.52053" lon="6.14626">
        <ele>322.5</ele>
        <time>2018-01-07T09:16:39Z</time>
      </trkpt>
      <trkpt lat="43.52048" lon="6.14614">
        <ele>320.9</ele>
        <time>2018-01-07T09:16:58Z</time>
      </trkpt>
      <trkpt lat="43.5204" lon="6.14606">
        <ele>320.4</ele>
        <time>2018-01-07T09:17:05Z</time>
      </trkpt>
      <trkpt lat="43.52031" lon="6.14606">
        <ele>319.9</ele>
        <time>2018-01-07T09:17:12Z</time>
      </trkpt>
      <trkpt lat="43.52022" lon="6.14609">
        <ele>319.7</ele>
        <time>2018-01-07T09:17:20Z</time>
      </trkpt>
      <trkpt lat="43.52013" lon="6.14612">
        <ele>319</ele>
        <time>2018-01-07T09:17:31Z</time>
      </trkpt>
      <trkpt lat="43.52005" lon="6.14617">
        <ele>317.9</ele>
        <time>2018-01-07T09:17:45Z</time>
      </trkpt>
      <trkpt lat="43.51996" lon="6.14623">
        <ele>317.2</ele>
        <time>2018-01-07T09:17:57Z</time>
      </trkpt>
      <trkpt lat="43.5199" lon="6.14634">
        <ele>316.1</ele>
        <time>2018-01-07T09:18:10Z</time>
      </trkpt>
      <trkpt lat="43.51981" lon="6.14638">
        <ele>315.2</ele>
        <time>2018-01-07T09:18:22Z</time>
      </trkpt>
      <trkpt lat="43.51971" lon="6.14641">
        <ele>314.3</ele>
        <time>2018-01-07T09:18:31Z</time>
      </trkpt>
      <trkpt lat="43.51967" lon="6.14629">
        <ele>311.5</ele>
        <time>2018-01-07T09:19:01Z</time>
      </trkpt>
      <trkpt lat="43.51959" lon="6.14623">
        <ele>309.6</ele>
        <time>2018-01-07T09:19:16Z</time>
      </trkpt>
      <trkpt lat="43.5195" lon="6.14618">
        <ele>308.8</ele>
        <time>2018-01-07T09:19:26Z</time>
      </trkpt>
      <trkpt lat="43.51941" lon="6.14616">
        <ele>307.8</ele>
        <time>2018-01-07T09:19:38Z</time>
      </trkpt>
      <trkpt lat="43.51935" lon="6.14607">
        <ele>305.2</ele>
        <time>2018-01-07T09:20:08Z</time>
      </trkpt>
      <trkpt lat="43.51926" lon="6.14601">
        <ele>303.6</ele>
        <time>2018-01-07T09:20:18Z</time>
      </trkpt>
      <trkpt lat="43.51917" lon="6.14594">
        <ele>301.4</ele>
        <time>2018-01-07T09:20:31Z</time>
      </trkpt>
      <trkpt lat="43.51908" lon="6.14588">
        <ele>298.3</ele>
        <time>2018-01-07T09:20:48Z</time>
      </trkpt>
      <trkpt lat="43.51901" lon="6.1458">
        <ele>296.6</ele>
        <time>2018-01-07T09:20:59Z</time>
      </trkpt>
      <trkpt lat="43.51892" lon="6.14576">
        <ele>294.9</ele>
        <time>2018-01-07T09:21:13Z</time>
      </trkpt>
      <trkpt lat="43.51883" lon="6.1457">
        <ele>293.7</ele>
        <time>2018-01-07T09:21:27Z</time>
      </trkpt>
      <trkpt lat="43.51874" lon="6.14567">
        <ele>292.2</ele>
        <time>2018-01-07T09:21:44Z</time>
      </trkpt>
      <trkpt lat="43.51864" lon="6.14569">
        <ele>290.5</ele>
        <time>2018-01-07T09:21:55Z</time>
      </trkpt>
      <trkpt lat="43.51855" lon="6.14569">
        <ele>288.4</ele>
        <time>2018-01-07T09:22:09Z</time>
      </trkpt>
      <trkpt lat="43.51853" lon="6.14557">
        <ele>286.2</ele>
        <time>2018-01-07T09:22:22Z</time>
      </trkpt>
      <trkpt lat="43.51854" lon="6.14544">
        <ele>285.1</ele>
        <time>2018-01-07T09:22:33Z</time>
      </trkpt>
      <trkpt lat="43.51859" lon="6.14532">
        <ele>284.2</ele>
        <time>2018-01-07T09:22:42Z</time>
      </trkpt>
      <trkpt lat="43.51861" lon="6.1452">
        <ele>283.4</ele>
        <time>2018-01-07T09:22:52Z</time>
      </trkpt>
      <trkpt lat="43.51869" lon="6.14513">
        <ele>283</ele>
        <time>2018-01-07T09:22:57Z</time>
      </trkpt>
      <trkpt lat="43.51879" lon="6.14509">
        <ele>282.5</ele>
        <time>2018-01-07T09:23:02Z</time>
      </trkpt>
      <trkpt lat="43.51878" lon="6.14497">
        <ele>281.4</ele>
        <time>2018-01-07T09:23:14Z</time>
      </trkpt>
      <trkpt lat="43.51881" lon="6.14485">
        <ele>279.9</ele>
        <time>2018-01-07T09:23:24Z</time>
      </trkpt>
      <trkpt lat="43.51881" lon="6.14472">
        <ele>277.6</ele>
        <time>2018-01-07T09:23:37Z</time>
      </trkpt>
      <trkpt lat="43.51888" lon="6.14462">
        <ele>275</ele>
        <time>2018-01-07T09:23:50Z</time>
      </trkpt>
      <trkpt lat="43.51896" lon="6.14457">
        <ele>273.6</ele>
        <time>2018-01-07T09:23:58Z</time>
      </trkpt>
      <trkpt lat="43.51905" lon="6.14452">
        <ele>272.2</ele>
        <time>2018-01-07T09:24:08Z</time>
      </trkpt>
      <trkpt lat="43.51913" lon="6.14449">
        <ele>269.6</ele>
        <time>2018-01-07T09:24:23Z</time>
      </trkpt>
      <trkpt lat="43.51919" lon="6.14439">
        <ele>268</ele>
        <time>2018-01-07T09:24:35Z</time>
      </trkpt>
      <trkpt lat="43.51926" lon="6.1443">
        <ele>267.2</ele>
        <time>2018-01-07T09:24:42Z</time>
      </trkpt>
      <trkpt lat="43.51931" lon="6.14418">
        <ele>265.8</ele>
        <time>2018-01-07T09:24:52Z</time>
      </trkpt>
      <trkpt lat="43.51935" lon="6.14407">
        <ele>264.3</ele>
        <time>2018-01-07T09:25:02Z</time>
      </trkpt>
      <trkpt lat="43.51938" lon="6.14394">
        <ele>262</ele>
        <time>2018-01-07T09:25:18Z</time>
      </trkpt>
      <trkpt lat="43.51943" lon="6.14383">
        <ele>260.3</ele>
        <time>2018-01-07T09:25:28Z</time>
      </trkpt>
      <trkpt lat="43.51949" lon="6.14373">
        <ele>259.3</ele>
        <time>2018-01-07T09:25:36Z</time>
      </trkpt>
      <trkpt lat="43.5195" lon="6.14361">
        <ele>258.2</ele>
        <time>2018-01-07T09:25:44Z</time>
      </trkpt>
      <trkpt lat="43.51943" lon="6.14352">
        <ele>257.4</ele>
        <time>2018-01-07T09:25:55Z</time>
      </trkpt>
      <trkpt lat="43.51935" lon="6.14345">
        <ele>257.6</ele>
        <time>2018-01-07T09:26:05Z</time>
      </trkpt>
      <trkpt lat="43.5193" lon="6.14334">
        <ele>259.4</ele>
        <time>2018-01-07T09:26:22Z</time>
      </trkpt>
      <trkpt lat="43.51925" lon="6.14322">
        <ele>261.2</ele>
        <time>2018-01-07T09:26:34Z</time>
      </trkpt>
      <trkpt lat="43.5192" lon="6.1431">
        <ele>262.6</ele>
        <time>2018-01-07T09:26:43Z</time>
      </trkpt>
      <trkpt lat="43.51921" lon="6.14297">
        <ele>264.2</ele>
        <time>2018-01-07T09:27:01Z</time>
      </trkpt>
      <trkpt lat="43.51919" lon="6.14285">
        <ele>264.7</ele>
        <time>2018-01-07T09:27:09Z</time>
      </trkpt>
      <trkpt lat="43.51917" lon="6.14272">
        <ele>265</ele>
        <time>2018-01-07T09:27:21Z</time>
      </trkpt>
      <trkpt lat="43.51923" lon="6.14262">
        <ele>264.6</ele>
        <time>2018-01-07T09:27:37Z</time>
      </trkpt>
      <trkpt lat="43.51923" lon="6.14249">
        <ele>264</ele>
        <time>2018-01-07T09:27:47Z</time>
      </trkpt>
      <trkpt lat="43.51917" lon="6.14238">
        <ele>262.9</ele>
        <time>2018-01-07T09:27:55Z</time>
      </trkpt>
      <trkpt lat="43.51915" lon="6.14224">
        <ele>261.1</ele>
        <time>2018-01-07T09:28:08Z</time>
      </trkpt>
      <trkpt lat="43.51914" lon="6.14211">
        <ele>259.5</ele>
        <time>2018-01-07T09:28:21Z</time>
      </trkpt>
      <trkpt lat="43.51912" lon="6.14199">
        <ele>259</ele>
        <time>2018-01-07T09:28:29Z</time>
      </trkpt>
      <trkpt lat="43.51911" lon="6.14185">
        <ele>259</ele>
        <time>2018-01-07T09:28:41Z</time>
      </trkpt>
      <trkpt lat="43.5191" lon="6.14173">
        <ele>259.2</ele>
        <time>2018-01-07T09:28:53Z</time>
      </trkpt>
      <trkpt lat="43.519" lon="6.14172">
        <ele>259.6</ele>
        <time>2018-01-07T09:29:03Z</time>
      </trkpt>
      <trkpt lat="43.51899" lon="6.14159">
        <ele>259.7</ele>
        <time>2018-01-07T09:29:20Z</time>
      </trkpt>
      <trkpt lat="43.51898" lon="6.14146">
        <ele>259.9</ele>
        <time>2018-01-07T09:30:09Z</time>
      </trkpt>
      <trkpt lat="43.51892" lon="6.14136">
        <ele>260.1</ele>
        <time>2018-01-07T09:30:16Z</time>
      </trkpt>
      <trkpt lat="43.51887" lon="6.14125">
        <ele>260.5</ele>
        <time>2018-01-07T09:30:25Z</time>
      </trkpt>
      <trkpt lat="43.51882" lon="6.14113">
        <ele>261.1</ele>
        <time>2018-01-07T09:30:37Z</time>
      </trkpt>
      <trkpt lat="43.51877" lon="6.14102">
        <ele>261.4</ele>
        <time>2018-01-07T09:30:47Z</time>
      </trkpt>
      <trkpt lat="43.51875" lon="6.14089">
        <ele>261.1</ele>
        <time>2018-01-07T09:30:56Z</time>
      </trkpt>
      <trkpt lat="43.51874" lon="6.14075">
        <ele>261.5</ele>
        <time>2018-01-07T09:31:06Z</time>
      </trkpt>
      <trkpt lat="43.5187" lon="6.14063">
        <ele>261.3</ele>
        <time>2018-01-07T09:31:16Z</time>
      </trkpt>
      <trkpt lat="43.51866" lon="6.14051">
        <ele>260.9</ele>
        <time>2018-01-07T09:31:27Z</time>
      </trkpt>
      <trkpt lat="43.51865" lon="6.14037">
        <ele>260.5</ele>
        <time>2018-01-07T09:31:36Z</time>
      </trkpt>
      <trkpt lat="43.51865" lon="6.14025">
        <ele>260.2</ele>
        <time>2018-01-07T09:31:45Z</time>
      </trkpt>
      <trkpt lat="43.51863" lon="6.14012">
        <ele>259.7</ele>
        <time>2018-01-07T09:31:54Z</time>
      </trkpt>
      <trkpt lat="43.51855" lon="6.14004">
        <ele>259</ele>
        <time>2018-01-07T09:32:02Z</time>
      </trkpt>
      <trkpt lat="43.51848" lon="6.13998">
        <ele>257.8</ele>
        <time>2018-01-07T09:32:11Z</time>
      </trkpt>
      <trkpt lat="43.51838" lon="6.13998">
        <ele>256.5</ele>
        <time>2018-01-07T09:32:19Z</time>
      </trkpt>
      <trkpt lat="43.51829" lon="6.13992">
        <ele>255.2</ele>
        <time>2018-01-07T09:32:29Z</time>
      </trkpt>
      <trkpt lat="43.51825" lon="6.13981">
        <ele>253.8</ele>
        <time>2018-01-07T09:32:40Z</time>
      </trkpt>
      <trkpt lat="43.51818" lon="6.13973">
        <ele>253.3</ele>
        <time>2018-01-07T09:32:50Z</time>
      </trkpt>
      <trkpt lat="43.51811" lon="6.13964">
        <ele>252.8</ele>
        <time>2018-01-07T09:33:01Z</time>
      </trkpt>
      <trkpt lat="43.51805" lon="6.13954">
        <ele>252.8</ele>
        <time>2018-01-07T09:33:18Z</time>
      </trkpt>
      <trkpt lat="43.51797" lon="6.13947">
        <ele>253.4</ele>
        <time>2018-01-07T09:33:25Z</time>
      </trkpt>
      <trkpt lat="43.51793" lon="6.13936">
        <ele>254.6</ele>
        <time>2018-01-07T09:33:40Z</time>
      </trkpt>
      <trkpt lat="43.51797" lon="6.13924">
        <ele>256.1</ele>
        <time>2018-01-07T09:33:56Z</time>
      </trkpt>
      <trkpt lat="43.51792" lon="6.13913">
        <ele>258.1</ele>
        <time>2018-01-07T09:34:12Z</time>
      </trkpt>
      <trkpt lat="43.51795" lon="6.139">
        <ele>259.9</ele>
        <time>2018-01-07T09:34:26Z</time>
      </trkpt>
      <trkpt lat="43.51802" lon="6.13893">
        <ele>262.2</ele>
        <time>2018-01-07T09:34:41Z</time>
      </trkpt>
      <trkpt lat="43.51797" lon="6.13882">
        <ele>264.1</ele>
        <time>2018-01-07T09:34:57Z</time>
      </trkpt>
      <trkpt lat="43.51793" lon="6.1387">
        <ele>265.2</ele>
        <time>2018-01-07T09:35:06Z</time>
      </trkpt>
      <trkpt lat="43.51795" lon="6.13858">
        <ele>266.6</ele>
        <time>2018-01-07T09:35:19Z</time>
      </trkpt>
      <trkpt lat="43.51789" lon="6.13847">
        <ele>268</ele>
        <time>2018-01-07T09:35:29Z</time>
      </trkpt>
      <trkpt lat="43.51788" lon="6.13834">
        <ele>269.6</ele>
        <time>2018-01-07T09:35:45Z</time>
      </trkpt>
      <trkpt lat="43.51791" lon="6.13822">
        <ele>270.6</ele>
        <time>2018-01-07T09:35:55Z</time>
      </trkpt>
      <trkpt lat="43.51785" lon="6.13811">
        <ele>271.8</ele>
        <time>2018-01-07T09:36:05Z</time>
      </trkpt>
      <trkpt lat="43.51779" lon="6.138">
        <ele>274.3</ele>
        <time>2018-01-07T09:36:18Z</time>
      </trkpt>
      <trkpt lat="43.51774" lon="6.13788">
        <ele>275.4</ele>
        <time>2018-01-07T09:36:28Z</time>
      </trkpt>
      <trkpt lat="43.51775" lon="6.13774">
        <ele>276.5</ele>
        <time>2018-01-07T09:36:39Z</time>
      </trkpt>
      <trkpt lat="43.5177" lon="6.13762">
        <ele>276.8</ele>
        <time>2018-01-07T09:36:43Z</time>
      </trkpt>
      <trkpt lat="43.51774" lon="6.13751">
        <ele>277.8</ele>
        <time>2018-01-07T09:36:56Z</time>
      </trkpt>
      <trkpt lat="43.51768" lon="6.13742">
        <ele>278.5</ele>
        <time>2018-01-07T09:37:09Z</time>
      </trkpt>
      <trkpt lat="43.51758" lon="6.13744">
        <ele>279.4</ele>
        <time>2018-01-07T09:37:32Z</time>
      </trkpt>
      <trkpt lat="43.51749" lon="6.13746">
        <ele>280.1</ele>
        <time>2018-01-07T09:37:41Z</time>
      </trkpt>
      <trkpt lat="43.51758" lon="6.13738">
        <ele>280.4</ele>
        <time>2018-01-07T09:38:12Z</time>
      </trkpt>
      <trkpt lat="43.51762" lon="6.13727">
        <ele>280.4</ele>
        <time>2018-01-07T09:38:28Z</time>
      </trkpt>
      <trkpt lat="43.51767" lon="6.13716">
        <ele>280.9</ele>
        <time>2018-01-07T09:38:39Z</time>
      </trkpt>
      <trkpt lat="43.51768" lon="6.13703">
        <ele>281.5</ele>
        <time>2018-01-07T09:38:50Z</time>
      </trkpt>
      <trkpt lat="43.51772" lon="6.1369">
        <ele>282.8</ele>
        <time>2018-01-07T09:39:04Z</time>
      </trkpt>
      <trkpt lat="43.51779" lon="6.13681">
        <ele>283.7</ele>
        <time>2018-01-07T09:39:13Z</time>
      </trkpt>
      <trkpt lat="43.51776" lon="6.13668">
        <ele>284.3</ele>
        <time>2018-01-07T09:39:23Z</time>
      </trkpt>
      <trkpt lat="43.51783" lon="6.13658">
        <ele>284.7</ele>
        <time>2018-01-07T09:39:34Z</time>
      </trkpt>
      <trkpt lat="43.51784" lon="6.13644">
        <ele>285.1</ele>
        <time>2018-01-07T09:39:43Z</time>
      </trkpt>
      <trkpt lat="43.51792" lon="6.13638">
        <ele>285.6</ele>
        <time>2018-01-07T09:39:51Z</time>
      </trkpt>
      <trkpt lat="43.51795" lon="6.13625">
        <ele>286.2</ele>
        <time>2018-01-07T09:40:03Z</time>
      </trkpt>
      <trkpt lat="43.51788" lon="6.13617">
        <ele>286.7</ele>
        <time>2018-01-07T09:40:16Z</time>
      </trkpt>
      <trkpt lat="43.51797" lon="6.13621">
        <ele>287.3</ele>
        <time>2018-01-07T09:40:35Z</time>
      </trkpt>
      <trkpt lat="43.51806" lon="6.13617">
        <ele>288</ele>
        <time>2018-01-07T09:40:45Z</time>
      </trkpt>
      <trkpt lat="43.51813" lon="6.1361">
        <ele>288.6</ele>
        <time>2018-01-07T09:40:56Z</time>
      </trkpt>
      <trkpt lat="43.51824" lon="6.13609">
        <ele>289</ele>
        <time>2018-01-07T09:41:03Z</time>
      </trkpt>
      <trkpt lat="43.51832" lon="6.13604">
        <ele>289.2</ele>
        <time>2018-01-07T09:41:10Z</time>
      </trkpt>
      <trkpt lat="43.5183" lon="6.1359">
        <ele>291</ele>
        <time>2018-01-07T09:41:38Z</time>
      </trkpt>
      <trkpt lat="43.51838" lon="6.13585">
        <ele>292.3</ele>
        <time>2018-01-07T09:41:53Z</time>
      </trkpt>
      <trkpt lat="43.51848" lon="6.13582">
        <ele>292.5</ele>
        <time>2018-01-07T09:41:59Z</time>
      </trkpt>
      <trkpt lat="43.51857" lon="6.13576">
        <ele>292.9</ele>
        <time>2018-01-07T09:42:04Z</time>
      </trkpt>
      <trkpt lat="43.51865" lon="6.1357">
        <ele>294.1</ele>
        <time>2018-01-07T09:42:18Z</time>
      </trkpt>
      <trkpt lat="43.51875" lon="6.1357">
        <ele>294.5</ele>
        <time>2018-01-07T09:42:29Z</time>
      </trkpt>
      <trkpt lat="43.51885" lon="6.13565">
        <ele>294.5</ele>
        <time>2018-01-07T09:42:37Z</time>
      </trkpt>
      <trkpt lat="43.51891" lon="6.13555">
        <ele>294.5</ele>
        <time>2018-01-07T09:42:49Z</time>
      </trkpt>
      <trkpt lat="43.519" lon="6.13555">
        <ele>294.9</ele>
        <time>2018-01-07T09:43:31Z</time>
      </trkpt>
      <trkpt lat="43.51909" lon="6.1355">
        <ele>295.3</ele>
        <time>2018-01-07T09:43:40Z</time>
      </trkpt>
      <trkpt lat="43.51918" lon="6.13543">
        <ele>295.4</ele>
        <time>2018-01-07T09:43:46Z</time>
      </trkpt>
      <trkpt lat="43.51927" lon="6.1354">
        <ele>295.4</ele>
        <time>2018-01-07T09:43:56Z</time>
      </trkpt>
      <trkpt lat="43.51937" lon="6.13533">
        <ele>295.3</ele>
        <time>2018-01-07T09:44:09Z</time>
      </trkpt>
      <trkpt lat="43.51946" lon="6.13529">
        <ele>295.1</ele>
        <time>2018-01-07T09:44:16Z</time>
      </trkpt>
      <trkpt lat="43.51953" lon="6.13521">
        <ele>294.5</ele>
        <time>2018-01-07T09:44:28Z</time>
      </trkpt>
      <trkpt lat="43.51956" lon="6.13509">
        <ele>294.2</ele>
        <time>2018-01-07T09:44:36Z</time>
      </trkpt>
      <trkpt lat="43.51963" lon="6.13498">
        <ele>294.5</ele>
        <time>2018-01-07T09:44:53Z</time>
      </trkpt>
      <trkpt lat="43.51965" lon="6.13486">
        <ele>295.2</ele>
        <time>2018-01-07T09:45:10Z</time>
      </trkpt>
      <trkpt lat="43.51967" lon="6.13474">
        <ele>296.7</ele>
        <time>2018-01-07T09:45:23Z</time>
      </trkpt>
      <trkpt lat="43.51968" lon="6.13461">
        <ele>297.4</ele>
        <time>2018-01-07T09:45:35Z</time>
      </trkpt>
      <trkpt lat="43.51977" lon="6.13454">
        <ele>298.4</ele>
        <time>2018-01-07T09:45:46Z</time>
      </trkpt>
      <trkpt lat="43.51983" lon="6.13444">
        <ele>300</ele>
        <time>2018-01-07T09:46:02Z</time>
      </trkpt>
      <trkpt lat="43.51987" lon="6.13432">
        <ele>302.9</ele>
        <time>2018-01-07T09:46:31Z</time>
      </trkpt>
      <trkpt lat="43.51997" lon="6.13427">
        <ele>303.9</ele>
        <time>2018-01-07T09:46:44Z</time>
      </trkpt>
      <trkpt lat="43.52006" lon="6.13422">
        <ele>305.3</ele>
        <time>2018-01-07T09:46:58Z</time>
      </trkpt>
      <trkpt lat="43.52015" lon="6.13416">
        <ele>307.2</ele>
        <time>2018-01-07T09:47:17Z</time>
      </trkpt>
      <trkpt lat="43.52025" lon="6.13411">
        <ele>307.6</ele>
        <time>2018-01-07T09:47:21Z</time>
      </trkpt>
      <trkpt lat="43.52033" lon="6.13404">
        <ele>308.5</ele>
        <time>2018-01-07T09:47:30Z</time>
      </trkpt>
      <trkpt lat="43.52041" lon="6.13398">
        <ele>309.1</ele>
        <time>2018-01-07T09:47:38Z</time>
      </trkpt>
      <trkpt lat="43.5205" lon="6.1339">
        <ele>310.2</ele>
        <time>2018-01-07T09:47:52Z</time>
      </trkpt>
      <trkpt lat="43.52059" lon="6.13383">
        <ele>311.1</ele>
        <time>2018-01-07T09:48:00Z</time>
      </trkpt>
      <trkpt lat="43.52067" lon="6.13376">
        <ele>312.1</ele>
        <time>2018-01-07T09:48:08Z</time>
      </trkpt>
      <trkpt lat="43.52077" lon="6.13371">
        <ele>312.9</ele>
        <time>2018-01-07T09:48:20Z</time>
      </trkpt>
      <trkpt lat="43.52068" lon="6.13378">
        <ele>315.2</ele>
        <time>2018-01-07T09:49:17Z</time>
      </trkpt>
      <trkpt lat="43.52077" lon="6.13372">
        <ele>314.1</ele>
        <time>2018-01-07T09:49:44Z</time>
      </trkpt>
      <trkpt lat="43.52086" lon="6.13369">
        <ele>313.8</ele>
        <time>2018-01-07T09:50:32Z</time>
      </trkpt>
      <trkpt lat="43.52096" lon="6.13371">
        <ele>314.3</ele>
        <time>2018-01-07T09:50:44Z</time>
      </trkpt>
      <trkpt lat="43.52086" lon="6.1337">
        <ele>313.6</ele>
        <time>2018-01-07T09:51:01Z</time>
      </trkpt>
      <trkpt lat="43.52076" lon="6.13371">
        <ele>313.4</ele>
        <time>2018-01-07T09:51:06Z</time>
      </trkpt>
      <trkpt lat="43.52067" lon="6.13374">
        <ele>314</ele>
        <time>2018-01-07T09:51:20Z</time>
      </trkpt>
      <trkpt lat="43.5207" lon="6.13362">
        <ele>313.6</ele>
        <time>2018-01-07T09:53:20Z</time>
      </trkpt>
      <trkpt lat="43.52078" lon="6.13355">
        <ele>314.5</ele>
        <time>2018-01-07T09:53:32Z</time>
      </trkpt>
      <trkpt lat="43.52083" lon="6.13345">
        <ele>314.7</ele>
        <time>2018-01-07T09:53:39Z</time>
      </trkpt>
      <trkpt lat="43.5209" lon="6.13336">
        <ele>315.1</ele>
        <time>2018-01-07T09:53:48Z</time>
      </trkpt>
      <trkpt lat="43.52092" lon="6.1332">
        <ele>315.4</ele>
        <time>2018-01-07T09:54:00Z</time>
      </trkpt>
      <trkpt lat="43.52099" lon="6.13311">
        <ele>316.1</ele>
        <time>2018-01-07T09:54:08Z</time>
      </trkpt>
      <trkpt lat="43.52091" lon="6.13302">
        <ele>316.6</ele>
        <time>2018-01-07T09:54:16Z</time>
      </trkpt>
      <trkpt lat="43.52095" lon="6.1329">
        <ele>318.1</ele>
        <time>2018-01-07T09:54:25Z</time>
      </trkpt>
      <trkpt lat="43.52102" lon="6.13282">
        <ele>318</ele>
        <time>2018-01-07T09:54:36Z</time>
      </trkpt>
      <trkpt lat="43.52105" lon="6.13268">
        <ele>319</ele>
        <time>2018-01-07T09:54:48Z</time>
      </trkpt>
      <trkpt lat="43.52092" lon="6.13266">
        <ele>320</ele>
        <time>2018-01-07T09:54:56Z</time>
      </trkpt>
      <trkpt lat="43.52098" lon="6.13251">
        <ele>322</ele>
        <time>2018-01-07T09:55:12Z</time>
      </trkpt>
      <trkpt lat="43.52097" lon="6.13236">
        <ele>323</ele>
        <time>2018-01-07T09:55:20Z</time>
      </trkpt>
      <trkpt lat="43.52102" lon="6.13224">
        <ele>324</ele>
        <time>2018-01-07T09:55:40Z</time>
      </trkpt>
      <trkpt lat="43.52114" lon="6.13227">
        <ele>325</ele>
        <time>2018-01-07T09:55:48Z</time>
      </trkpt>
      <trkpt lat="43.52124" lon="6.13227">
        <ele>326</ele>
        <time>2018-01-07T09:56:00Z</time>
      </trkpt>
      <trkpt lat="43.52137" lon="6.13219">
        <ele>327</ele>
        <time>2018-01-07T09:56:16Z</time>
      </trkpt>
      <trkpt lat="43.52146" lon="6.13216">
        <ele>328</ele>
        <time>2018-01-07T09:56:24Z</time>
      </trkpt>
      <trkpt lat="43.52157" lon="6.13217">
        <ele>328</ele>
        <time>2018-01-07T09:56:32Z</time>
      </trkpt>
      <trkpt lat="43.52166" lon="6.13218">
        <ele>329</ele>
        <time>2018-01-07T09:56:44Z</time>
      </trkpt>
      <trkpt lat="43.52179" lon="6.13221">
        <ele>330</ele>
        <time>2018-01-07T09:56:52Z</time>
      </trkpt>
      <trkpt lat="43.52188" lon="6.13222">
        <ele>331</ele>
        <time>2018-01-07T09:57:00Z</time>
      </trkpt>
      <trkpt lat="43.52191" lon="6.13237">
        <ele>332.7</ele>
        <time>2018-01-07T09:57:19Z</time>
      </trkpt>
      <trkpt lat="43.52187" lon="6.13249">
        <ele>333.2</ele>
        <time>2018-01-07T09:57:28Z</time>
      </trkpt>
      <trkpt lat="43.52194" lon="6.13259">
        <ele>334.7</ele>
        <time>2018-01-07T09:57:42Z</time>
      </trkpt>
      <trkpt lat="43.52203" lon="6.13267">
        <ele>335.4</ele>
        <time>2018-01-07T09:57:50Z</time>
      </trkpt>
      <trkpt lat="43.52211" lon="6.13271">
        <ele>336.2</ele>
        <time>2018-01-07T09:57:58Z</time>
      </trkpt>
      <trkpt lat="43.5222" lon="6.13278">
        <ele>337.2</ele>
        <time>2018-01-07T09:58:08Z</time>
      </trkpt>
      <trkpt lat="43.5223" lon="6.13282">
        <ele>337.9</ele>
        <time>2018-01-07T09:58:14Z</time>
      </trkpt>
      <trkpt lat="43.52235" lon="6.13293">
        <ele>339.7</ele>
        <time>2018-01-07T09:58:30Z</time>
      </trkpt>
      <trkpt lat="43.52245" lon="6.13294">
        <ele>340.4</ele>
        <time>2018-01-07T09:58:39Z</time>
      </trkpt>
      <trkpt lat="43.52256" lon="6.13296">
        <ele>341.4</ele>
        <time>2018-01-07T09:58:49Z</time>
      </trkpt>
      <trkpt lat="43.52265" lon="6.13291">
        <ele>342.5</ele>
        <time>2018-01-07T09:59:01Z</time>
      </trkpt>
      <trkpt lat="43.52254" lon="6.13286">
        <ele>343</ele>
        <time>2018-01-07T09:59:10Z</time>
      </trkpt>
      <trkpt lat="43.52246" lon="6.13278">
        <ele>344.2</ele>
        <time>2018-01-07T09:59:19Z</time>
      </trkpt>
      <trkpt lat="43.52237" lon="6.13266">
        <ele>344</ele>
        <time>2018-01-07T09:59:34Z</time>
      </trkpt>
      <trkpt lat="43.52239" lon="6.13253">
        <ele>345</ele>
        <time>2018-01-07T09:59:43Z</time>
      </trkpt>
      <trkpt lat="43.52235" lon="6.1324">
        <ele>344</ele>
        <time>2018-01-07T09:59:55Z</time>
      </trkpt>
      <trkpt lat="43.52225" lon="6.13234">
        <ele>344</ele>
        <time>2018-01-07T10:00:03Z</time>
      </trkpt>
      <trkpt lat="43.52218" lon="6.1322">
        <ele>344</ele>
        <time>2018-01-07T10:00:15Z</time>
      </trkpt>
      <trkpt lat="43.52216" lon="6.13208">
        <ele>345</ele>
        <time>2018-01-07T10:00:27Z</time>
      </trkpt>
      <trkpt lat="43.52208" lon="6.13198">
        <ele>346</ele>
        <time>2018-01-07T10:00:35Z</time>
      </trkpt>
      <trkpt lat="43.52201" lon="6.13188">
        <ele>347</ele>
        <time>2018-01-07T10:00:51Z</time>
      </trkpt>
      <trkpt lat="43.52196" lon="6.13174">
        <ele>348</ele>
        <time>2018-01-07T10:01:03Z</time>
      </trkpt>
      <trkpt lat="43.52197" lon="6.13162">
        <ele>349</ele>
        <time>2018-01-07T10:01:15Z</time>
      </trkpt>
      <trkpt lat="43.52192" lon="6.13151">
        <ele>350</ele>
        <time>2018-01-07T10:01:27Z</time>
      </trkpt>
      <trkpt lat="43.52196" lon="6.13127">
        <ele>351</ele>
        <time>2018-01-07T10:01:43Z</time>
      </trkpt>
      <trkpt lat="43.52207" lon="6.13118">
        <ele>353</ele>
        <time>2018-01-07T10:01:59Z</time>
      </trkpt>
      <trkpt lat="43.52211" lon="6.13101">
        <ele>354</ele>
        <time>2018-01-07T10:02:19Z</time>
      </trkpt>
      <trkpt lat="43.52212" lon="6.13087">
        <ele>354</ele>
        <time>2018-01-07T10:02:31Z</time>
      </trkpt>
      <trkpt lat="43.52219" lon="6.13076">
        <ele>354</ele>
        <time>2018-01-07T10:02:43Z</time>
      </trkpt>
      <trkpt lat="43.5223" lon="6.13069">
        <ele>354</ele>
        <time>2018-01-07T10:02:51Z</time>
      </trkpt>
      <trkpt lat="43.52235" lon="6.13056">
        <ele>355</ele>
        <time>2018-01-07T10:03:03Z</time>
      </trkpt>
      <trkpt lat="43.52224" lon="6.13049">
        <ele>355</ele>
        <time>2018-01-07T10:03:15Z</time>
      </trkpt>
      <trkpt lat="43.52232" lon="6.13039">
        <ele>355</ele>
        <time>2018-01-07T10:04:11Z</time>
      </trkpt>
      <trkpt lat="43.52244" lon="6.13034">
        <ele>354</ele>
        <time>2018-01-07T10:04:27Z</time>
      </trkpt>
      <trkpt lat="43.52254" lon="6.13025">
        <ele>354</ele>
        <time>2018-01-07T10:04:39Z</time>
      </trkpt>
      <trkpt lat="43.52264" lon="6.13023">
        <ele>354</ele>
        <time>2018-01-07T10:04:47Z</time>
      </trkpt>
      <trkpt lat="43.52275" lon="6.1302">
        <ele>355</ele>
        <time>2018-01-07T10:04:55Z</time>
      </trkpt>
      <trkpt lat="43.52285" lon="6.13016">
        <ele>355</ele>
        <time>2018-01-07T10:05:03Z</time>
      </trkpt>
      <trkpt lat="43.52294" lon="6.13015">
        <ele>356</ele>
        <time>2018-01-07T10:05:15Z</time>
      </trkpt>
      <trkpt lat="43.52303" lon="6.13006">
        <ele>355</ele>
        <time>2018-01-07T10:05:31Z</time>
      </trkpt>
      <trkpt lat="43.52314" lon="6.13002">
        <ele>355</ele>
        <time>2018-01-07T10:05:39Z</time>
      </trkpt>
      <trkpt lat="43.52325" lon="6.12999">
        <ele>356</ele>
        <time>2018-01-07T10:05:55Z</time>
      </trkpt>
      <trkpt lat="43.52334" lon="6.1299">
        <ele>356</ele>
        <time>2018-01-07T10:06:07Z</time>
      </trkpt>
      <trkpt lat="43.52344" lon="6.12984">
        <ele>356</ele>
        <time>2018-01-07T10:06:19Z</time>
      </trkpt>
      <trkpt lat="43.52355" lon="6.12983">
        <ele>356</ele>
        <time>2018-01-07T10:06:27Z</time>
      </trkpt>
      <trkpt lat="43.52366" lon="6.12992">
        <ele>356</ele>
        <time>2018-01-07T10:06:39Z</time>
      </trkpt>
      <trkpt lat="43.52378" lon="6.12997">
        <ele>356</ele>
        <time>2018-01-07T10:06:55Z</time>
      </trkpt>
      <trkpt lat="43.52387" lon="6.12993">
        <ele>357</ele>
        <time>2018-01-07T10:07:07Z</time>
      </trkpt>
      <trkpt lat="43.52397" lon="6.12989">
        <ele>357</ele>
        <time>2018-01-07T10:07:15Z</time>
      </trkpt>
      <trkpt lat="43.52405" lon="6.12982">
        <ele>358</ele>
        <time>2018-01-07T10:07:31Z</time>
      </trkpt>
      <trkpt lat="43.52419" lon="6.12984">
        <ele>358</ele>
        <time>2018-01-07T10:07:43Z</time>
      </trkpt>
      <trkpt lat="43.52431" lon="6.12984">
        <ele>358</ele>
        <time>2018-01-07T10:07:55Z</time>
      </trkpt>
      <trkpt lat="43.52441" lon="6.12982">
        <ele>358</ele>
        <time>2018-01-07T10:08:03Z</time>
      </trkpt>
      <trkpt lat="43.52452" lon="6.12982">
        <ele>358</ele>
        <time>2018-01-07T10:08:11Z</time>
      </trkpt>
      <trkpt lat="43.52466" lon="6.12979">
        <ele>358</ele>
        <time>2018-01-07T10:08:23Z</time>
      </trkpt>
      <trkpt lat="43.52478" lon="6.1298">
        <ele>358</ele>
        <time>2018-01-07T10:08:35Z</time>
      </trkpt>
      <trkpt lat="43.52488" lon="6.12982">
        <ele>358</ele>
        <time>2018-01-07T10:08:43Z</time>
      </trkpt>
      <trkpt lat="43.52498" lon="6.12981">
        <ele>359</ele>
        <time>2018-01-07T10:09:07Z</time>
      </trkpt>
      <trkpt lat="43.52508" lon="6.12978">
        <ele>359</ele>
        <time>2018-01-07T10:09:19Z</time>
      </trkpt>
      <trkpt lat="43.52517" lon="6.12975">
        <ele>359</ele>
        <time>2018-01-07T10:09:31Z</time>
      </trkpt>
      <trkpt lat="43.52528" lon="6.12974">
        <ele>359</ele>
        <time>2018-01-07T10:09:35Z</time>
      </trkpt>
      <trkpt lat="43.52539" lon="6.12971">
        <ele>359</ele>
        <time>2018-01-07T10:09:43Z</time>
      </trkpt>
      <trkpt lat="43.52554" lon="6.12971">
        <ele>360</ele>
        <time>2018-01-07T10:10:03Z</time>
      </trkpt>
      <trkpt lat="43.52563" lon="6.12973">
        <ele>360</ele>
        <time>2018-01-07T10:10:07Z</time>
      </trkpt>
      <trkpt lat="43.52571" lon="6.12982">
        <ele>361</ele>
        <time>2018-01-07T10:10:32Z</time>
      </trkpt>
      <trkpt lat="43.52582" lon="6.12987">
        <ele>361</ele>
        <time>2018-01-07T10:10:48Z</time>
      </trkpt>
      <trkpt lat="43.52591" lon="6.12991">
        <ele>361</ele>
        <time>2018-01-07T10:10:56Z</time>
      </trkpt>
      <trkpt lat="43.52591" lon="6.13007">
        <ele>362</ele>
        <time>2018-01-07T10:11:12Z</time>
      </trkpt>
      <trkpt lat="43.526" lon="6.13013">
        <ele>362</ele>
        <time>2018-01-07T10:11:20Z</time>
      </trkpt>
      <trkpt lat="43.52603" lon="6.13026">
        <ele>362</ele>
        <time>2018-01-07T10:11:32Z</time>
      </trkpt>
      <trkpt lat="43.52608" lon="6.13037">
        <ele>363</ele>
        <time>2018-01-07T10:11:40Z</time>
      </trkpt>
      <trkpt lat="43.52616" lon="6.13044">
        <ele>363</ele>
        <time>2018-01-07T10:11:52Z</time>
      </trkpt>
      <trkpt lat="43.52625" lon="6.13052">
        <ele>364</ele>
        <time>2018-01-07T10:12:04Z</time>
      </trkpt>
      <trkpt lat="43.52633" lon="6.13062">
        <ele>364</ele>
        <time>2018-01-07T10:12:16Z</time>
      </trkpt>
      <trkpt lat="43.52641" lon="6.13074">
        <ele>364</ele>
        <time>2018-01-07T10:12:28Z</time>
      </trkpt>
      <trkpt lat="43.52657" lon="6.13079">
        <ele>364</ele>
        <time>2018-01-07T10:12:36Z</time>
      </trkpt>
      <trkpt lat="43.52652" lon="6.1309">
        <ele>364</ele>
        <time>2018-01-07T10:12:48Z</time>
      </trkpt>
      <trkpt lat="43.52642" lon="6.13097">
        <ele>365</ele>
        <time>2018-01-07T10:13:00Z</time>
      </trkpt>
      <trkpt lat="43.52626" lon="6.13098">
        <ele>364</ele>
        <time>2018-01-07T10:13:49Z</time>
      </trkpt>
      <trkpt lat="43.52649" lon="6.13092">
        <ele>365</ele>
        <time>2018-01-07T10:14:21Z</time>
      </trkpt>
      <trkpt lat="43.5266" lon="6.13087">
        <ele>365</ele>
        <time>2018-01-07T10:14:29Z</time>
      </trkpt>
      <trkpt lat="43.52669" lon="6.13085">
        <ele>365</ele>
        <time>2018-01-07T10:14:37Z</time>
      </trkpt>
      <trkpt lat="43.52646" lon="6.13091">
        <ele>365.7</ele>
        <time>2018-01-07T10:14:48Z</time>
      </trkpt>
      <trkpt lat="43.52637" lon="6.13095">
        <ele>365.7</ele>
        <time>2018-01-07T10:14:55Z</time>
      </trkpt>
      <trkpt lat="43.52637" lon="6.13108">
        <ele>365.6</ele>
        <time>2018-01-07T10:16:14Z</time>
      </trkpt>
      <trkpt lat="43.52645" lon="6.13114">
        <ele>365.5</ele>
        <time>2018-01-07T10:16:20Z</time>
      </trkpt>
      <trkpt lat="43.52647" lon="6.13126">
        <ele>365.4</ele>
        <time>2018-01-07T10:16:32Z</time>
      </trkpt>
      <trkpt lat="43.52651" lon="6.13138">
        <ele>365.5</ele>
        <time>2018-01-07T10:16:40Z</time>
      </trkpt>
      <trkpt lat="43.52658" lon="6.13149">
        <ele>365.6</ele>
        <time>2018-01-07T10:16:47Z</time>
      </trkpt>
      <trkpt lat="43.52667" lon="6.13156">
        <ele>365.6</ele>
        <time>2018-01-07T10:16:56Z</time>
      </trkpt>
      <trkpt lat="43.52675" lon="6.13164">
        <ele>365.4</ele>
        <time>2018-01-07T10:17:09Z</time>
      </trkpt>
      <trkpt lat="43.52678" lon="6.13176">
        <ele>365.2</ele>
        <time>2018-01-07T10:17:16Z</time>
      </trkpt>
      <trkpt lat="43.52684" lon="6.13185">
        <ele>365</ele>
        <time>2018-01-07T10:17:23Z</time>
      </trkpt>
      <trkpt lat="43.52691" lon="6.13195">
        <ele>364.9</ele>
        <time>2018-01-07T10:17:31Z</time>
      </trkpt>
      <trkpt lat="43.52694" lon="6.13209">
        <ele>364.9</ele>
        <time>2018-01-07T10:17:43Z</time>
      </trkpt>
      <trkpt lat="43.527" lon="6.13219">
        <ele>365</ele>
        <time>2018-01-07T10:17:52Z</time>
      </trkpt>
      <trkpt lat="43.52709" lon="6.13224">
        <ele>365.7</ele>
        <time>2018-01-07T10:18:02Z</time>
      </trkpt>
      <trkpt lat="43.52717" lon="6.13231">
        <ele>367</ele>
        <time>2018-01-07T10:18:12Z</time>
      </trkpt>
      <trkpt lat="43.52726" lon="6.13236">
        <ele>367.4</ele>
        <time>2018-01-07T10:18:18Z</time>
      </trkpt>
      <trkpt lat="43.52731" lon="6.13247">
        <ele>367.4</ele>
        <time>2018-01-07T10:18:26Z</time>
      </trkpt>
      <trkpt lat="43.52738" lon="6.13256">
        <ele>367.1</ele>
        <time>2018-01-07T10:18:34Z</time>
      </trkpt>
      <trkpt lat="43.52746" lon="6.13266">
        <ele>366.6</ele>
        <time>2018-01-07T10:18:44Z</time>
      </trkpt>
      <trkpt lat="43.52748" lon="6.13278">
        <ele>366.7</ele>
        <time>2018-01-07T10:18:52Z</time>
      </trkpt>
      <trkpt lat="43.52755" lon="6.13287">
        <ele>367</ele>
        <time>2018-01-07T10:19:02Z</time>
      </trkpt>
      <trkpt lat="43.52758" lon="6.13299">
        <ele>367</ele>
        <time>2018-01-07T10:19:07Z</time>
      </trkpt>
      <trkpt lat="43.52767" lon="6.13298">
        <ele>366.8</ele>
        <time>2018-01-07T10:19:14Z</time>
      </trkpt>
      <trkpt lat="43.52776" lon="6.13302">
        <ele>366.8</ele>
        <time>2018-01-07T10:19:26Z</time>
      </trkpt>
      <trkpt lat="43.52787" lon="6.13304">
        <ele>366</ele>
        <time>2018-01-07T10:19:33Z</time>
      </trkpt>
      <trkpt lat="43.52798" lon="6.13306">
        <ele>367</ele>
        <time>2018-01-07T10:19:41Z</time>
      </trkpt>
      <trkpt lat="43.52807" lon="6.13308">
        <ele>366.9</ele>
        <time>2018-01-07T10:19:48Z</time>
      </trkpt>
      <trkpt lat="43.52816" lon="6.13303">
        <ele>367</ele>
        <time>2018-01-07T10:19:52Z</time>
      </trkpt>
      <trkpt lat="43.52824" lon="6.13313">
        <ele>367</ele>
        <time>2018-01-07T10:20:07Z</time>
      </trkpt>
      <trkpt lat="43.52833" lon="6.13318">
        <ele>367.5</ele>
        <time>2018-01-07T10:20:14Z</time>
      </trkpt>
      <trkpt lat="43.52841" lon="6.13324">
        <ele>367.6</ele>
        <time>2018-01-07T10:20:28Z</time>
      </trkpt>
      <trkpt lat="43.52847" lon="6.13334">
        <ele>367</ele>
        <time>2018-01-07T10:20:38Z</time>
      </trkpt>
      <trkpt lat="43.52856" lon="6.13342">
        <ele>367.6</ele>
        <time>2018-01-07T10:21:18Z</time>
      </trkpt>
      <trkpt lat="43.52865" lon="6.13346">
        <ele>368.2</ele>
        <time>2018-01-07T10:21:37Z</time>
      </trkpt>
      <trkpt lat="43.52874" lon="6.13351">
        <ele>368.3</ele>
        <time>2018-01-07T10:21:46Z</time>
      </trkpt>
      <trkpt lat="43.52883" lon="6.13358">
        <ele>368.7</ele>
        <time>2018-01-07T10:21:57Z</time>
      </trkpt>
      <trkpt lat="43.52889" lon="6.13367">
        <ele>369.2</ele>
        <time>2018-01-07T10:22:08Z</time>
      </trkpt>
      <trkpt lat="43.52898" lon="6.13366">
        <ele>369.8</ele>
        <time>2018-01-07T10:22:19Z</time>
      </trkpt>
      <trkpt lat="43.52907" lon="6.13372">
        <ele>370.7</ele>
        <time>2018-01-07T10:22:32Z</time>
      </trkpt>
      <trkpt lat="43.52913" lon="6.13386">
        <ele>371</ele>
        <time>2018-01-07T10:22:41Z</time>
      </trkpt>
      <trkpt lat="43.5292" lon="6.13394">
        <ele>371</ele>
        <time>2018-01-07T10:22:49Z</time>
      </trkpt>
      <trkpt lat="43.52921" lon="6.13407">
        <ele>371.6</ele>
        <time>2018-01-07T10:22:57Z</time>
      </trkpt>
      <trkpt lat="43.5293" lon="6.13413">
        <ele>371.5</ele>
        <time>2018-01-07T10:23:06Z</time>
      </trkpt>
      <trkpt lat="43.5293" lon="6.13429">
        <ele>371.2</ele>
        <time>2018-01-07T10:23:15Z</time>
      </trkpt>
      <trkpt lat="43.52934" lon="6.1344">
        <ele>371.2</ele>
        <time>2018-01-07T10:23:22Z</time>
      </trkpt>
      <trkpt lat="43.5294" lon="6.1345">
        <ele>371.1</ele>
        <time>2018-01-07T10:23:36Z</time>
      </trkpt>
      <trkpt lat="43.52947" lon="6.13459">
        <ele>371.3</ele>
        <time>2018-01-07T10:23:45Z</time>
      </trkpt>
      <trkpt lat="43.52954" lon="6.13469">
        <ele>371.2</ele>
        <time>2018-01-07T10:23:54Z</time>
      </trkpt>
      <trkpt lat="43.52956" lon="6.13481">
        <ele>371.1</ele>
        <time>2018-01-07T10:24:01Z</time>
      </trkpt>
      <trkpt lat="43.52963" lon="6.1349">
        <ele>371</ele>
        <time>2018-01-07T10:24:08Z</time>
      </trkpt>
      <trkpt lat="43.52971" lon="6.13503">
        <ele>370</ele>
        <time>2018-01-07T10:24:16Z</time>
      </trkpt>
      <trkpt lat="43.52974" lon="6.13515">
        <ele>371.1</ele>
        <time>2018-01-07T10:24:26Z</time>
      </trkpt>
      <trkpt lat="43.52979" lon="6.13526">
        <ele>371.4</ele>
        <time>2018-01-07T10:24:36Z</time>
      </trkpt>
      <trkpt lat="43.52987" lon="6.13536">
        <ele>371.3</ele>
        <time>2018-01-07T10:24:44Z</time>
      </trkpt>
      <trkpt lat="43.52993" lon="6.13544">
        <ele>370.5</ele>
        <time>2018-01-07T10:24:57Z</time>
      </trkpt>
      <trkpt lat="43.52997" lon="6.13556">
        <ele>369.6</ele>
        <time>2018-01-07T10:25:13Z</time>
      </trkpt>
      <trkpt lat="43.52989" lon="6.13547">
        <ele>369.3</ele>
        <time>2018-01-07T10:25:24Z</time>
      </trkpt>
      <trkpt lat="43.53" lon="6.1355">
        <ele>369.3</ele>
        <time>2018-01-07T10:25:49Z</time>
      </trkpt>
      <trkpt lat="43.53008" lon="6.13558">
        <ele>368.9</ele>
        <time>2018-01-07T10:25:58Z</time>
      </trkpt>
      <trkpt lat="43.53016" lon="6.13564">
        <ele>369.2</ele>
        <time>2018-01-07T10:26:08Z</time>
      </trkpt>
      <trkpt lat="43.53025" lon="6.13564">
        <ele>369.5</ele>
        <time>2018-01-07T10:26:13Z</time>
      </trkpt>
      <trkpt lat="43.53034" lon="6.13567">
        <ele>369.8</ele>
        <time>2018-01-07T10:26:19Z</time>
      </trkpt>
      <trkpt lat="43.53043" lon="6.1357">
        <ele>370</ele>
        <time>2018-01-07T10:26:28Z</time>
      </trkpt>
      <trkpt lat="43.53048" lon="6.13583">
        <ele>369.7</ele>
        <time>2018-01-07T10:26:36Z</time>
      </trkpt>
      <trkpt lat="43.53042" lon="6.13597">
        <ele>369.4</ele>
        <time>2018-01-07T10:26:42Z</time>
      </trkpt>
      <trkpt lat="43.53051" lon="6.13607">
        <ele>369</ele>
        <time>2018-01-07T10:26:51Z</time>
      </trkpt>
      <trkpt lat="43.53059" lon="6.13618">
        <ele>370</ele>
        <time>2018-01-07T10:27:04Z</time>
      </trkpt>
      <trkpt lat="43.53064" lon="6.13628">
        <ele>370</ele>
        <time>2018-01-07T10:27:13Z</time>
      </trkpt>
      <trkpt lat="43.53075" lon="6.13628">
        <ele>370.4</ele>
        <time>2018-01-07T10:27:24Z</time>
      </trkpt>
      <trkpt lat="43.53083" lon="6.13633">
        <ele>370.7</ele>
        <time>2018-01-07T10:27:33Z</time>
      </trkpt>
      <trkpt lat="43.5309" lon="6.13642">
        <ele>370.9</ele>
        <time>2018-01-07T10:27:41Z</time>
      </trkpt>
      <trkpt lat="43.53096" lon="6.13651">
        <ele>371.3</ele>
        <time>2018-01-07T10:27:49Z</time>
      </trkpt>
      <trkpt lat="43.53106" lon="6.13656">
        <ele>371.4</ele>
        <time>2018-01-07T10:28:38Z</time>
      </trkpt>
      <trkpt lat="43.53111" lon="6.13666">
        <ele>371.6</ele>
        <time>2018-01-07T10:28:51Z</time>
      </trkpt>
      <trkpt lat="43.53118" lon="6.13675">
        <ele>372</ele>
        <time>2018-01-07T10:29:02Z</time>
      </trkpt>
      <trkpt lat="43.53126" lon="6.13682">
        <ele>372.4</ele>
        <time>2018-01-07T10:29:14Z</time>
      </trkpt>
      <trkpt lat="43.53134" lon="6.13691">
        <ele>372.6</ele>
        <time>2018-01-07T10:29:23Z</time>
      </trkpt>
      <trkpt lat="43.53138" lon="6.13704">
        <ele>372.3</ele>
        <time>2018-01-07T10:29:31Z</time>
      </trkpt>
      <trkpt lat="43.53147" lon="6.13707">
        <ele>371.8</ele>
        <time>2018-01-07T10:29:37Z</time>
      </trkpt>
      <trkpt lat="43.53156" lon="6.1371">
        <ele>371.1</ele>
        <time>2018-01-07T10:29:47Z</time>
      </trkpt>
      <trkpt lat="43.53164" lon="6.13717">
        <ele>370.4</ele>
        <time>2018-01-07T10:29:57Z</time>
      </trkpt>
      <trkpt lat="43.53167" lon="6.13729">
        <ele>370.1</ele>
        <time>2018-01-07T10:30:03Z</time>
      </trkpt>
      <trkpt lat="43.53176" lon="6.13738">
        <ele>369.8</ele>
        <time>2018-01-07T10:30:11Z</time>
      </trkpt>
      <trkpt lat="43.53184" lon="6.13744">
        <ele>369.5</ele>
        <time>2018-01-07T10:30:18Z</time>
      </trkpt>
      <trkpt lat="43.53188" lon="6.13755">
        <ele>369.3</ele>
        <time>2018-01-07T10:30:28Z</time>
      </trkpt>
      <trkpt lat="43.53194" lon="6.13765">
        <ele>368.8</ele>
        <time>2018-01-07T10:30:38Z</time>
      </trkpt>
      <trkpt lat="43.53202" lon="6.13772">
        <ele>368.7</ele>
        <time>2018-01-07T10:30:49Z</time>
      </trkpt>
      <trkpt lat="43.5321" lon="6.13783">
        <ele>369</ele>
        <time>2018-01-07T10:30:58Z</time>
      </trkpt>
      <trkpt lat="43.53221" lon="6.13779">
        <ele>368</ele>
        <time>2018-01-07T10:31:08Z</time>
      </trkpt>
      <trkpt lat="43.5323" lon="6.13785">
        <ele>368.5</ele>
        <time>2018-01-07T10:31:23Z</time>
      </trkpt>
      <trkpt lat="43.53233" lon="6.13798">
        <ele>368.4</ele>
        <time>2018-01-07T10:31:29Z</time>
      </trkpt>
      <trkpt lat="43.53234" lon="6.13821">
        <ele>368</ele>
        <time>2018-01-07T10:31:37Z</time>
      </trkpt>
      <trkpt lat="43.53243" lon="6.13824">
        <ele>368.1</ele>
        <time>2018-01-07T10:31:45Z</time>
      </trkpt>
      <trkpt lat="43.53251" lon="6.13832">
        <ele>368</ele>
        <time>2018-01-07T10:31:55Z</time>
      </trkpt>
      <trkpt lat="43.53257" lon="6.13843">
        <ele>368</ele>
        <time>2018-01-07T10:32:05Z</time>
      </trkpt>
      <trkpt lat="43.53264" lon="6.13852">
        <ele>368</ele>
        <time>2018-01-07T10:32:16Z</time>
      </trkpt>
      <trkpt lat="43.5327" lon="6.13862">
        <ele>369</ele>
        <time>2018-01-07T10:32:45Z</time>
      </trkpt>
      <trkpt lat="43.5328" lon="6.13859">
        <ele>369.4</ele>
        <time>2018-01-07T10:33:32Z</time>
      </trkpt>
      <trkpt lat="43.53289" lon="6.13859">
        <ele>368.9</ele>
        <time>2018-01-07T10:33:40Z</time>
      </trkpt>
      <trkpt lat="43.53298" lon="6.13858">
        <ele>368</ele>
        <time>2018-01-07T10:33:53Z</time>
      </trkpt>
      <trkpt lat="43.53308" lon="6.13859">
        <ele>367.4</ele>
        <time>2018-01-07T10:34:02Z</time>
      </trkpt>
      <trkpt lat="43.53317" lon="6.13855">
        <ele>367.3</ele>
        <time>2018-01-07T10:34:07Z</time>
      </trkpt>
      <trkpt lat="43.53327" lon="6.13859">
        <ele>367</ele>
        <time>2018-01-07T10:34:16Z</time>
      </trkpt>
      <trkpt lat="43.53337" lon="6.13864">
        <ele>366.8</ele>
        <time>2018-01-07T10:34:27Z</time>
      </trkpt>
      <trkpt lat="43.53345" lon="6.13873">
        <ele>365.9</ele>
        <time>2018-01-07T10:34:35Z</time>
      </trkpt>
      <trkpt lat="43.53353" lon="6.13878">
        <ele>364.3</ele>
        <time>2018-01-07T10:34:48Z</time>
      </trkpt>
      <trkpt lat="43.53361" lon="6.13887">
        <ele>363.6</ele>
        <time>2018-01-07T10:34:59Z</time>
      </trkpt>
      <trkpt lat="43.53368" lon="6.13898">
        <ele>362.7</ele>
        <time>2018-01-07T10:35:07Z</time>
      </trkpt>
      <trkpt lat="43.53375" lon="6.13907">
        <ele>361.5</ele>
        <time>2018-01-07T10:35:15Z</time>
      </trkpt>
      <trkpt lat="43.53383" lon="6.139">
        <ele>360.8</ele>
        <time>2018-01-07T10:35:23Z</time>
      </trkpt>
      <trkpt lat="43.53393" lon="6.13908">
        <ele>359.2</ele>
        <time>2018-01-07T10:35:36Z</time>
      </trkpt>
      <trkpt lat="43.53399" lon="6.13919">
        <ele>357.8</ele>
        <time>2018-01-07T10:35:43Z</time>
      </trkpt>
      <trkpt lat="43.53409" lon="6.13923">
        <ele>354.7</ele>
        <time>2018-01-07T10:35:58Z</time>
      </trkpt>
      <trkpt lat="43.53418" lon="6.13926">
        <ele>353.4</ele>
        <time>2018-01-07T10:36:06Z</time>
      </trkpt>
      <trkpt lat="43.53427" lon="6.1393">
        <ele>349.1</ele>
        <time>2018-01-07T10:37:46Z</time>
      </trkpt>
      <trkpt lat="43.53436" lon="6.13933">
        <ele>348.2</ele>
        <time>2018-01-07T10:37:53Z</time>
      </trkpt>
      <trkpt lat="43.53443" lon="6.13941">
        <ele>346.8</ele>
        <time>2018-01-07T10:38:07Z</time>
      </trkpt>
      <trkpt lat="43.53452" lon="6.13947">
        <ele>345.5</ele>
        <time>2018-01-07T10:38:21Z</time>
      </trkpt>
      <trkpt lat="43.53461" lon="6.13952">
        <ele>344.8</ele>
        <time>2018-01-07T10:38:32Z</time>
      </trkpt>
      <trkpt lat="43.53469" lon="6.1396">
        <ele>344.2</ele>
        <time>2018-01-07T10:38:41Z</time>
      </trkpt>
      <trkpt lat="43.53476" lon="6.13969">
        <ele>341.5</ele>
        <time>2018-01-07T10:38:57Z</time>
      </trkpt>
      <trkpt lat="43.53484" lon="6.1396">
        <ele>341.2</ele>
        <time>2018-01-07T10:39:03Z</time>
      </trkpt>
      <trkpt lat="43.53493" lon="6.13968">
        <ele>341</ele>
        <time>2018-01-07T10:39:12Z</time>
      </trkpt>
      <trkpt lat="43.53496" lon="6.13955">
        <ele>340.8</ele>
        <time>2018-01-07T10:39:30Z</time>
      </trkpt>
      <trkpt lat="43.53492" lon="6.13967">
        <ele>340.8</ele>
        <time>2018-01-07T10:39:57Z</time>
      </trkpt>
      <trkpt lat="43.53482" lon="6.13969">
        <ele>340.1</ele>
        <time>2018-01-07T10:40:28Z</time>
      </trkpt>
      <trkpt lat="43.53494" lon="6.13967">
        <ele>340</ele>
        <time>2018-01-07T10:40:47Z</time>
      </trkpt>
      <trkpt lat="43.535" lon="6.13957">
        <ele>340.8</ele>
        <time>2018-01-07T10:41:04Z</time>
      </trkpt>
      <trkpt lat="43.53501" lon="6.13944">
        <ele>341</ele>
        <time>2018-01-07T10:41:13Z</time>
      </trkpt>
      <trkpt lat="43.53492" lon="6.1395">
        <ele>341</ele>
        <time>2018-01-07T10:41:27Z</time>
      </trkpt>
      <trkpt lat="43.53499" lon="6.13939">
        <ele>344.2</ele>
        <time>2018-01-07T10:41:59Z</time>
      </trkpt>
      <trkpt lat="43.53508" lon="6.13933">
        <ele>346.1</ele>
        <time>2018-01-07T10:42:09Z</time>
      </trkpt>
      <trkpt lat="43.53516" lon="6.13924">
        <ele>348.3</ele>
        <time>2018-01-07T10:42:28Z</time>
      </trkpt>
      <trkpt lat="43.53521" lon="6.13912">
        <ele>349.1</ele>
        <time>2018-01-07T10:42:39Z</time>
      </trkpt>
      <trkpt lat="43.53529" lon="6.13902">
        <ele>350</ele>
        <time>2018-01-07T10:42:46Z</time>
      </trkpt>
      <trkpt lat="43.53534" lon="6.13891">
        <ele>350.5</ele>
        <time>2018-01-07T10:42:52Z</time>
      </trkpt>
      <trkpt lat="43.53525" lon="6.1389">
        <ele>351.1</ele>
        <time>2018-01-07T10:43:05Z</time>
      </trkpt>
      <trkpt lat="43.5353" lon="6.13878">
        <ele>351.4</ele>
        <time>2018-01-07T10:43:11Z</time>
      </trkpt>
      <trkpt lat="43.53535" lon="6.13867">
        <ele>351.7</ele>
        <time>2018-01-07T10:43:17Z</time>
      </trkpt>
      <trkpt lat="43.5354" lon="6.13856">
        <ele>352</ele>
        <time>2018-01-07T10:43:22Z</time>
      </trkpt>
      <trkpt lat="43.53543" lon="6.13843">
        <ele>352.3</ele>
        <time>2018-01-07T10:43:29Z</time>
      </trkpt>
      <trkpt lat="43.53544" lon="6.1383">
        <ele>353.4</ele>
        <time>2018-01-07T10:43:53Z</time>
      </trkpt>
      <trkpt lat="43.53548" lon="6.13817">
        <ele>353.6</ele>
        <time>2018-01-07T10:44:00Z</time>
      </trkpt>
      <trkpt lat="43.53552" lon="6.138">
        <ele>353.8</ele>
        <time>2018-01-07T10:44:06Z</time>
      </trkpt>
      <trkpt lat="43.53553" lon="6.13814">
        <ele>353.8</ele>
        <time>2018-01-07T10:44:12Z</time>
      </trkpt>
      <trkpt lat="43.53557" lon="6.13825">
        <ele>353.2</ele>
        <time>2018-01-07T10:44:42Z</time>
      </trkpt>
      <trkpt lat="43.53563" lon="6.13835">
        <ele>353.2</ele>
        <time>2018-01-07T10:44:52Z</time>
      </trkpt>
      <trkpt lat="43.5357" lon="6.13843">
        <ele>352.6</ele>
        <time>2018-01-07T10:45:05Z</time>
      </trkpt>
      <trkpt lat="43.53578" lon="6.13851">
        <ele>351.7</ele>
        <time>2018-01-07T10:45:16Z</time>
      </trkpt>
      <trkpt lat="43.53582" lon="6.13863">
        <ele>350.4</ele>
        <time>2018-01-07T10:45:32Z</time>
      </trkpt>
      <trkpt lat="43.53587" lon="6.13873">
        <ele>349.8</ele>
        <time>2018-01-07T10:45:43Z</time>
      </trkpt>
      <trkpt lat="43.53594" lon="6.13881">
        <ele>349.2</ele>
        <time>2018-01-07T10:45:50Z</time>
      </trkpt>
      <trkpt lat="43.53601" lon="6.13889">
        <ele>348.4</ele>
        <time>2018-01-07T10:45:58Z</time>
      </trkpt>
      <trkpt lat="43.53605" lon="6.13901">
        <ele>347.4</ele>
        <time>2018-01-07T10:46:06Z</time>
      </trkpt>
      <trkpt lat="43.53608" lon="6.13914">
        <ele>345.8</ele>
        <time>2018-01-07T10:46:15Z</time>
      </trkpt>
      <trkpt lat="43.53616" lon="6.13923">
        <ele>345</ele>
        <time>2018-01-07T10:46:26Z</time>
      </trkpt>
      <trkpt lat="43.53622" lon="6.13933">
        <ele>345.5</ele>
        <time>2018-01-07T10:46:44Z</time>
      </trkpt>
      <trkpt lat="43.53631" lon="6.13937">
        <ele>344.2</ele>
        <time>2018-01-07T10:47:00Z</time>
      </trkpt>
      <trkpt lat="43.53625" lon="6.13948">
        <ele>343</ele>
        <time>2018-01-07T10:47:21Z</time>
      </trkpt>
      <trkpt lat="43.53634" lon="6.13954">
        <ele>342.9</ele>
        <time>2018-01-07T10:47:30Z</time>
      </trkpt>
      <trkpt lat="43.53641" lon="6.13961">
        <ele>342.9</ele>
        <time>2018-01-07T10:47:39Z</time>
      </trkpt>
      <trkpt lat="43.53651" lon="6.13966">
        <ele>343</ele>
        <time>2018-01-07T10:47:52Z</time>
      </trkpt>
      <trkpt lat="43.53661" lon="6.13969">
        <ele>342.7</ele>
        <time>2018-01-07T10:48:03Z</time>
      </trkpt>
      <trkpt lat="43.53668" lon="6.13977">
        <ele>342.5</ele>
        <time>2018-01-07T10:48:09Z</time>
      </trkpt>
      <trkpt lat="43.53676" lon="6.13985">
        <ele>342.7</ele>
        <time>2018-01-07T10:48:22Z</time>
      </trkpt>
      <trkpt lat="43.53681" lon="6.13997">
        <ele>343</ele>
        <time>2018-01-07T10:48:35Z</time>
      </trkpt>
      <trkpt lat="43.53691" lon="6.13999">
        <ele>343.3</ele>
        <time>2018-01-07T10:48:45Z</time>
      </trkpt>
      <trkpt lat="43.537" lon="6.13998">
        <ele>343.7</ele>
        <time>2018-01-07T10:48:53Z</time>
      </trkpt>
      <trkpt lat="43.53708" lon="6.14005">
        <ele>345.3</ele>
        <time>2018-01-07T10:49:06Z</time>
      </trkpt>
      <trkpt lat="43.53715" lon="6.13995">
        <ele>345.8</ele>
        <time>2018-01-07T10:49:13Z</time>
      </trkpt>
      <trkpt lat="43.53719" lon="6.13983">
        <ele>346.2</ele>
        <time>2018-01-07T10:49:25Z</time>
      </trkpt>
      <trkpt lat="43.53723" lon="6.13971">
        <ele>346.5</ele>
        <time>2018-01-07T10:49:30Z</time>
      </trkpt>
      <trkpt lat="43.53732" lon="6.13967">
        <ele>347</ele>
        <time>2018-01-07T10:49:40Z</time>
      </trkpt>
      <trkpt lat="43.53741" lon="6.1396">
        <ele>347.6</ele>
        <time>2018-01-07T10:49:49Z</time>
      </trkpt>
      <trkpt lat="43.53749" lon="6.13954">
        <ele>348.6</ele>
        <time>2018-01-07T10:50:02Z</time>
      </trkpt>
      <trkpt lat="43.53759" lon="6.13949">
        <ele>349.6</ele>
        <time>2018-01-07T10:50:17Z</time>
      </trkpt>
      <trkpt lat="43.53769" lon="6.13946">
        <ele>350.2</ele>
        <time>2018-01-07T10:50:33Z</time>
      </trkpt>
      <trkpt lat="43.53778" lon="6.13941">
        <ele>350.7</ele>
        <time>2018-01-07T10:50:42Z</time>
      </trkpt>
      <trkpt lat="43.53786" lon="6.13933">
        <ele>351.7</ele>
        <time>2018-01-07T10:50:52Z</time>
      </trkpt>
      <trkpt lat="43.53793" lon="6.13925">
        <ele>352.6</ele>
        <time>2018-01-07T10:51:02Z</time>
      </trkpt>
      <trkpt lat="43.53803" lon="6.1392">
        <ele>353.2</ele>
        <time>2018-01-07T10:51:17Z</time>
      </trkpt>
      <trkpt lat="43.5381" lon="6.13909">
        <ele>353.6</ele>
        <time>2018-01-07T10:51:24Z</time>
      </trkpt>
      <trkpt lat="43.53816" lon="6.139">
        <ele>354</ele>
        <time>2018-01-07T10:51:33Z</time>
      </trkpt>
      <trkpt lat="43.53824" lon="6.13887">
        <ele>354.9</ele>
        <time>2018-01-07T10:51:41Z</time>
      </trkpt>
      <trkpt lat="43.53834" lon="6.13882">
        <ele>355</ele>
        <time>2018-01-07T10:51:51Z</time>
      </trkpt>
      <trkpt lat="43.53834" lon="6.13869">
        <ele>355.1</ele>
        <time>2018-01-07T10:51:57Z</time>
      </trkpt>
      <trkpt lat="43.53843" lon="6.13865">
        <ele>355.3</ele>
        <time>2018-01-07T10:52:15Z</time>
      </trkpt>
      <trkpt lat="43.53851" lon="6.13859">
        <ele>355.2</ele>
        <time>2018-01-07T10:52:24Z</time>
      </trkpt>
      <trkpt lat="43.5386" lon="6.13856">
        <ele>354.8</ele>
        <time>2018-01-07T10:52:35Z</time>
      </trkpt>
      <trkpt lat="43.53872" lon="6.13853">
        <ele>354.7</ele>
        <time>2018-01-07T10:52:59Z</time>
      </trkpt>
      <trkpt lat="43.53879" lon="6.13842">
        <ele>354</ele>
        <time>2018-01-07T10:53:07Z</time>
      </trkpt>
      <trkpt lat="43.53889" lon="6.13846">
        <ele>354.3</ele>
        <time>2018-01-07T10:53:15Z</time>
      </trkpt>
      <trkpt lat="43.53899" lon="6.13843">
        <ele>354.4</ele>
        <time>2018-01-07T10:53:23Z</time>
      </trkpt>
      <trkpt lat="43.53909" lon="6.13838">
        <ele>354.5</ele>
        <time>2018-01-07T10:53:32Z</time>
      </trkpt>
      <trkpt lat="43.53918" lon="6.13839">
        <ele>354.6</ele>
        <time>2018-01-07T10:53:41Z</time>
      </trkpt>
      <trkpt lat="43.53927" lon="6.13835">
        <ele>354.6</ele>
        <time>2018-01-07T10:53:49Z</time>
      </trkpt>
      <trkpt lat="43.5394" lon="6.13826">
        <ele>354.8</ele>
        <time>2018-01-07T10:54:03Z</time>
      </trkpt>
      <trkpt lat="43.53948" lon="6.13833">
        <ele>354.8</ele>
        <time>2018-01-07T10:54:12Z</time>
      </trkpt>
      <trkpt lat="43.53954" lon="6.13844">
        <ele>354.9</ele>
        <time>2018-01-07T10:54:22Z</time>
      </trkpt>
      <trkpt lat="43.53963" lon="6.13838">
        <ele>355</ele>
        <time>2018-01-07T10:54:29Z</time>
      </trkpt>
      <trkpt lat="43.53972" lon="6.13831">
        <ele>355</ele>
        <time>2018-01-07T10:54:46Z</time>
      </trkpt>
      <trkpt lat="43.53981" lon="6.13828">
        <ele>355</ele>
        <time>2018-01-07T10:55:00Z</time>
      </trkpt>
      <trkpt lat="43.53987" lon="6.13817">
        <ele>354.9</ele>
        <time>2018-01-07T10:55:10Z</time>
      </trkpt>
      <trkpt lat="43.53995" lon="6.1381">
        <ele>354.8</ele>
        <time>2018-01-07T10:55:18Z</time>
      </trkpt>
      <trkpt lat="43.54002" lon="6.13799">
        <ele>354.7</ele>
        <time>2018-01-07T10:55:29Z</time>
      </trkpt>
      <trkpt lat="43.5401" lon="6.13794">
        <ele>355</ele>
        <time>2018-01-07T10:55:41Z</time>
      </trkpt>
      <trkpt lat="43.54017" lon="6.13783">
        <ele>355.3</ele>
        <time>2018-01-07T10:55:49Z</time>
      </trkpt>
      <trkpt lat="43.54023" lon="6.13773">
        <ele>355.1</ele>
        <time>2018-01-07T10:55:56Z</time>
      </trkpt>
      <trkpt lat="43.54033" lon="6.13762">
        <ele>354.8</ele>
        <time>2018-01-07T10:56:09Z</time>
      </trkpt>
      <trkpt lat="43.54035" lon="6.13749">
        <ele>354.7</ele>
        <time>2018-01-07T10:56:22Z</time>
      </trkpt>
      <trkpt lat="43.54037" lon="6.13734">
        <ele>354</ele>
        <time>2018-01-07T10:56:33Z</time>
      </trkpt>
      <trkpt lat="43.54038" lon="6.13721">
        <ele>355</ele>
        <time>2018-01-07T10:56:43Z</time>
      </trkpt>
      <trkpt lat="43.54046" lon="6.13714">
        <ele>355.2</ele>
        <time>2018-01-07T10:56:51Z</time>
      </trkpt>
      <trkpt lat="43.54048" lon="6.13701">
        <ele>355</ele>
        <time>2018-01-07T10:57:08Z</time>
      </trkpt>
      <trkpt lat="43.54047" lon="6.13687">
        <ele>355.8</ele>
        <time>2018-01-07T10:57:22Z</time>
      </trkpt>
      <trkpt lat="43.54052" lon="6.13675">
        <ele>356</ele>
        <time>2018-01-07T10:57:28Z</time>
      </trkpt>
      <trkpt lat="43.5406" lon="6.13665">
        <ele>356.1</ele>
        <time>2018-01-07T10:57:36Z</time>
      </trkpt>
      <trkpt lat="43.54066" lon="6.13655">
        <ele>356.2</ele>
        <time>2018-01-07T10:57:42Z</time>
      </trkpt>
      <trkpt lat="43.54066" lon="6.13642">
        <ele>357.4</ele>
        <time>2018-01-07T10:58:04Z</time>
      </trkpt>
      <trkpt lat="43.54072" lon="6.13631">
        <ele>357.6</ele>
        <time>2018-01-07T10:58:11Z</time>
      </trkpt>
      <trkpt lat="43.54079" lon="6.13623">
        <ele>357.8</ele>
        <time>2018-01-07T10:58:21Z</time>
      </trkpt>
      <trkpt lat="43.54088" lon="6.13615">
        <ele>357</ele>
        <time>2018-01-07T10:58:29Z</time>
      </trkpt>
      <trkpt lat="43.54096" lon="6.13606">
        <ele>358.2</ele>
        <time>2018-01-07T10:58:39Z</time>
      </trkpt>
      <trkpt lat="43.54096" lon="6.13593">
        <ele>357.9</ele>
        <time>2018-01-07T10:58:53Z</time>
      </trkpt>
      <trkpt lat="43.54103" lon="6.13583">
        <ele>358</ele>
        <time>2018-01-07T10:59:00Z</time>
      </trkpt>
      <trkpt lat="43.54109" lon="6.13572">
        <ele>358</ele>
        <time>2018-01-07T10:59:19Z</time>
      </trkpt>
      <trkpt lat="43.54117" lon="6.13563">
        <ele>358.2</ele>
        <time>2018-01-07T10:59:28Z</time>
      </trkpt>
      <trkpt lat="43.54119" lon="6.13575">
        <ele>358.9</ele>
        <time>2018-01-07T11:00:01Z</time>
      </trkpt>
      <trkpt lat="43.54118" lon="6.13587">
        <ele>360.4</ele>
        <time>2018-01-07T11:00:27Z</time>
      </trkpt>
      <trkpt lat="43.54116" lon="6.13599">
        <ele>360.6</ele>
        <time>2018-01-07T11:00:37Z</time>
      </trkpt>
      <trkpt lat="43.54123" lon="6.13591">
        <ele>360.9</ele>
        <time>2018-01-07T11:01:20Z</time>
      </trkpt>
      <trkpt lat="43.54131" lon="6.13597">
        <ele>361.8</ele>
        <time>2018-01-07T11:01:32Z</time>
      </trkpt>
      <trkpt lat="43.54138" lon="6.13608">
        <ele>362.7</ele>
        <time>2018-01-07T11:01:44Z</time>
      </trkpt>
      <trkpt lat="43.54149" lon="6.13609">
        <ele>363.2</ele>
        <time>2018-01-07T11:01:53Z</time>
      </trkpt>
      <trkpt lat="43.54156" lon="6.13619">
        <ele>364.7</ele>
        <time>2018-01-07T11:02:16Z</time>
      </trkpt>
      <trkpt lat="43.54166" lon="6.13616">
        <ele>364.9</ele>
        <time>2018-01-07T11:02:27Z</time>
      </trkpt>
      <trkpt lat="43.54175" lon="6.13614">
        <ele>365.2</ele>
        <time>2018-01-07T11:02:40Z</time>
      </trkpt>
      <trkpt lat="43.54184" lon="6.13605">
        <ele>365.1</ele>
        <time>2018-01-07T11:02:49Z</time>
      </trkpt>
      <trkpt lat="43.54193" lon="6.13595">
        <ele>365.7</ele>
        <time>2018-01-07T11:03:02Z</time>
      </trkpt>
      <trkpt lat="43.54203" lon="6.13596">
        <ele>366.2</ele>
        <time>2018-01-07T11:03:09Z</time>
      </trkpt>
      <trkpt lat="43.5421" lon="6.13605">
        <ele>366.9</ele>
        <time>2018-01-07T11:03:20Z</time>
      </trkpt>
      <trkpt lat="43.54219" lon="6.13608">
        <ele>367.7</ele>
        <time>2018-01-07T11:03:37Z</time>
      </trkpt>
      <trkpt lat="43.54228" lon="6.13613">
        <ele>368.4</ele>
        <time>2018-01-07T11:03:50Z</time>
      </trkpt>
      <trkpt lat="43.54236" lon="6.13619">
        <ele>369.6</ele>
        <time>2018-01-07T11:04:06Z</time>
      </trkpt>
      <trkpt lat="43.5424" lon="6.13632">
        <ele>370</ele>
        <time>2018-01-07T11:04:12Z</time>
      </trkpt>
      <trkpt lat="43.5425" lon="6.13624">
        <ele>371</ele>
        <time>2018-01-07T11:04:22Z</time>
      </trkpt>
      <trkpt lat="43.54258" lon="6.13617">
        <ele>371.8</ele>
        <time>2018-01-07T11:04:32Z</time>
      </trkpt>
      <trkpt lat="43.54268" lon="6.13616">
        <ele>372.8</ele>
        <time>2018-01-07T11:04:43Z</time>
      </trkpt>
      <trkpt lat="43.54274" lon="6.13627">
        <ele>373.8</ele>
        <time>2018-01-07T11:04:54Z</time>
      </trkpt>
      <trkpt lat="43.54282" lon="6.13619">
        <ele>374.2</ele>
        <time>2018-01-07T11:05:00Z</time>
      </trkpt>
      <trkpt lat="43.54291" lon="6.13613">
        <ele>374.8</ele>
        <time>2018-01-07T11:05:09Z</time>
      </trkpt>
      <trkpt lat="43.54301" lon="6.13605">
        <ele>375</ele>
        <time>2018-01-07T11:05:20Z</time>
      </trkpt>
      <trkpt lat="43.5431" lon="6.13604">
        <ele>377</ele>
        <time>2018-01-07T11:05:38Z</time>
      </trkpt>
      <trkpt lat="43.54317" lon="6.13613">
        <ele>379.7</ele>
        <time>2018-01-07T11:05:53Z</time>
      </trkpt>
      <trkpt lat="43.54324" lon="6.1362">
        <ele>380.3</ele>
        <time>2018-01-07T11:06:05Z</time>
      </trkpt>
      <trkpt lat="43.54328" lon="6.13633">
        <ele>380.4</ele>
        <time>2018-01-07T11:06:15Z</time>
      </trkpt>
      <trkpt lat="43.5433" lon="6.13645">
        <ele>380.5</ele>
        <time>2018-01-07T11:06:24Z</time>
      </trkpt>
      <trkpt lat="43.54338" lon="6.13656">
        <ele>380.9</ele>
        <time>2018-01-07T11:06:33Z</time>
      </trkpt>
      <trkpt lat="43.54346" lon="6.13662">
        <ele>381.5</ele>
        <time>2018-01-07T11:06:43Z</time>
      </trkpt>
      <trkpt lat="43.54355" lon="6.13658">
        <ele>381.8</ele>
        <time>2018-01-07T11:06:49Z</time>
      </trkpt>
      <trkpt lat="43.54365" lon="6.13662">
        <ele>382.4</ele>
        <time>2018-01-07T11:07:02Z</time>
      </trkpt>
      <trkpt lat="43.54373" lon="6.13672">
        <ele>382</ele>
        <time>2018-01-07T11:07:10Z</time>
      </trkpt>
      <trkpt lat="43.54375" lon="6.13685">
        <ele>382</ele>
        <time>2018-01-07T11:07:21Z</time>
      </trkpt>
      <trkpt lat="43.54385" lon="6.13688">
        <ele>382.4</ele>
        <time>2018-01-07T11:07:32Z</time>
      </trkpt>
      <trkpt lat="43.54393" lon="6.13693">
        <ele>382.5</ele>
        <time>2018-01-07T11:07:42Z</time>
      </trkpt>
      <trkpt lat="43.54404" lon="6.13693">
        <ele>382.3</ele>
        <time>2018-01-07T11:07:50Z</time>
      </trkpt>
      <trkpt lat="43.54415" lon="6.13691">
        <ele>382</ele>
        <time>2018-01-07T11:07:56Z</time>
      </trkpt>
      <trkpt lat="43.54424" lon="6.13696">
        <ele>381.5</ele>
        <time>2018-01-07T11:08:04Z</time>
      </trkpt>
      <trkpt lat="43.5443" lon="6.13705">
        <ele>380.8</ele>
        <time>2018-01-07T11:08:13Z</time>
      </trkpt>
      <trkpt lat="43.54439" lon="6.13707">
        <ele>379.9</ele>
        <time>2018-01-07T11:08:22Z</time>
      </trkpt>
      <trkpt lat="43.54447" lon="6.13713">
        <ele>378.7</ele>
        <time>2018-01-07T11:08:33Z</time>
      </trkpt>
      <trkpt lat="43.54459" lon="6.13702">
        <ele>378.4</ele>
        <time>2018-01-07T11:08:38Z</time>
      </trkpt>
      <trkpt lat="43.54468" lon="6.13703">
        <ele>378.7</ele>
        <time>2018-01-07T11:08:52Z</time>
      </trkpt>
      <trkpt lat="43.54478" lon="6.13699">
        <ele>378.8</ele>
        <time>2018-01-07T11:09:02Z</time>
      </trkpt>
      <trkpt lat="43.54474" lon="6.13713">
        <ele>378.8</ele>
        <time>2018-01-07T11:09:06Z</time>
      </trkpt>
      <trkpt lat="43.54483" lon="6.13707">
        <ele>378.7</ele>
        <time>2018-01-07T11:09:09Z</time>
      </trkpt>
      <trkpt lat="43.54493" lon="6.13701">
        <ele>378.7</ele>
        <time>2018-01-07T11:09:12Z</time>
      </trkpt>
      <trkpt lat="43.54503" lon="6.13689">
        <ele>378</ele>
        <time>2018-01-07T11:09:17Z</time>
      </trkpt>
      <trkpt lat="43.54508" lon="6.13678">
        <ele>379</ele>
        <time>2018-01-07T11:10:15Z</time>
      </trkpt>
      <trkpt lat="43.54517" lon="6.1368">
        <ele>376.7</ele>
        <time>2018-01-07T11:11:09Z</time>
      </trkpt>
      <trkpt lat="43.54526" lon="6.13679">
        <ele>377.3</ele>
        <time>2018-01-07T11:11:24Z</time>
      </trkpt>
      <trkpt lat="43.54535" lon="6.13674">
        <ele>376.9</ele>
        <time>2018-01-07T11:11:33Z</time>
      </trkpt>
      <trkpt lat="43.54543" lon="6.1368">
        <ele>377.1</ele>
        <time>2018-01-07T11:11:46Z</time>
      </trkpt>
      <trkpt lat="43.54552" lon="6.13674">
        <ele>377</ele>
        <time>2018-01-07T11:11:55Z</time>
      </trkpt>
      <trkpt lat="43.54561" lon="6.13671">
        <ele>376.6</ele>
        <time>2018-01-07T11:12:03Z</time>
      </trkpt>
      <trkpt lat="43.5457" lon="6.13668">
        <ele>376.4</ele>
        <time>2018-01-07T11:12:13Z</time>
      </trkpt>
      <trkpt lat="43.54579" lon="6.13667">
        <ele>375.9</ele>
        <time>2018-01-07T11:12:23Z</time>
      </trkpt>
      <trkpt lat="43.54589" lon="6.13654">
        <ele>375.4</ele>
        <time>2018-01-07T11:12:32Z</time>
      </trkpt>
      <trkpt lat="43.54598" lon="6.13656">
        <ele>375.1</ele>
        <time>2018-01-07T11:12:42Z</time>
      </trkpt>
      <trkpt lat="43.54606" lon="6.13647">
        <ele>374.9</ele>
        <time>2018-01-07T11:12:47Z</time>
      </trkpt>
      <trkpt lat="43.54615" lon="6.13648">
        <ele>374.9</ele>
        <time>2018-01-07T11:12:55Z</time>
      </trkpt>
      <trkpt lat="43.54622" lon="6.13641">
        <ele>374.8</ele>
        <time>2018-01-07T11:13:02Z</time>
      </trkpt>
      <trkpt lat="43.5463" lon="6.13632">
        <ele>374.5</ele>
        <time>2018-01-07T11:13:15Z</time>
      </trkpt>
      <trkpt lat="43.54636" lon="6.13622">
        <ele>374.2</ele>
        <time>2018-01-07T11:13:23Z</time>
      </trkpt>
      <trkpt lat="43.54643" lon="6.13612">
        <ele>373.4</ele>
        <time>2018-01-07T11:13:33Z</time>
      </trkpt>
      <trkpt lat="43.54651" lon="6.13606">
        <ele>372.9</ele>
        <time>2018-01-07T11:13:40Z</time>
      </trkpt>
      <trkpt lat="43.54658" lon="6.13596">
        <ele>372.3</ele>
        <time>2018-01-07T11:13:49Z</time>
      </trkpt>
      <trkpt lat="43.54665" lon="6.13587">
        <ele>372.8</ele>
        <time>2018-01-07T11:14:08Z</time>
      </trkpt>
      <trkpt lat="43.54674" lon="6.13578">
        <ele>372.7</ele>
        <time>2018-01-07T11:14:20Z</time>
      </trkpt>
      <trkpt lat="43.54683" lon="6.13573">
        <ele>372.6</ele>
        <time>2018-01-07T11:14:34Z</time>
      </trkpt>
      <trkpt lat="43.54692" lon="6.1357">
        <ele>372.3</ele>
        <time>2018-01-07T11:14:45Z</time>
      </trkpt>
      <trkpt lat="43.54701" lon="6.13569">
        <ele>372.2</ele>
        <time>2018-01-07T11:14:56Z</time>
      </trkpt>
      <trkpt lat="43.5471" lon="6.13565">
        <ele>372.4</ele>
        <time>2018-01-07T11:15:08Z</time>
      </trkpt>
      <trkpt lat="43.54718" lon="6.13557">
        <ele>372.4</ele>
        <time>2018-01-07T11:15:13Z</time>
      </trkpt>
      <trkpt lat="43.54727" lon="6.1355">
        <ele>372.4</ele>
        <time>2018-01-07T11:15:23Z</time>
      </trkpt>
      <trkpt lat="43.54734" lon="6.13541">
        <ele>372</ele>
        <time>2018-01-07T11:15:30Z</time>
      </trkpt>
      <trkpt lat="43.54743" lon="6.13537">
        <ele>373.8</ele>
        <time>2018-01-07T11:15:43Z</time>
      </trkpt>
      <trkpt lat="43.54751" lon="6.13531">
        <ele>374.3</ele>
        <time>2018-01-07T11:15:50Z</time>
      </trkpt>
      <trkpt lat="43.5476" lon="6.13535">
        <ele>374.9</ele>
        <time>2018-01-07T11:16:03Z</time>
      </trkpt>
      <trkpt lat="43.54767" lon="6.13526">
        <ele>375.6</ele>
        <time>2018-01-07T11:16:11Z</time>
      </trkpt>
      <trkpt lat="43.54773" lon="6.13516">
        <ele>375.8</ele>
        <time>2018-01-07T11:16:19Z</time>
      </trkpt>
      <trkpt lat="43.5478" lon="6.13508">
        <ele>375.9</ele>
        <time>2018-01-07T11:16:24Z</time>
      </trkpt>
      <trkpt lat="43.54789" lon="6.13502">
        <ele>375.8</ele>
        <time>2018-01-07T11:16:31Z</time>
      </trkpt>
      <trkpt lat="43.54797" lon="6.13496">
        <ele>375.2</ele>
        <time>2018-01-07T11:16:46Z</time>
      </trkpt>
      <trkpt lat="43.54806" lon="6.13495">
        <ele>375.6</ele>
        <time>2018-01-07T11:17:07Z</time>
      </trkpt>
      <trkpt lat="43.54812" lon="6.13485">
        <ele>375.9</ele>
        <time>2018-01-07T11:17:16Z</time>
      </trkpt>
      <trkpt lat="43.54819" lon="6.13475">
        <ele>376.5</ele>
        <time>2018-01-07T11:17:26Z</time>
      </trkpt>
      <trkpt lat="43.54829" lon="6.13473">
        <ele>377.6</ele>
        <time>2018-01-07T11:17:39Z</time>
      </trkpt>
      <trkpt lat="43.54839" lon="6.13464">
        <ele>378</ele>
        <time>2018-01-07T11:17:46Z</time>
      </trkpt>
      <trkpt lat="43.54848" lon="6.1346">
        <ele>377.6</ele>
        <time>2018-01-07T11:18:05Z</time>
      </trkpt>
      <trkpt lat="43.54855" lon="6.13449">
        <ele>377.7</ele>
        <time>2018-01-07T11:18:11Z</time>
      </trkpt>
      <trkpt lat="43.54864" lon="6.13445">
        <ele>377.8</ele>
        <time>2018-01-07T11:18:20Z</time>
      </trkpt>
      <trkpt lat="43.54871" lon="6.13436">
        <ele>377.6</ele>
        <time>2018-01-07T11:18:25Z</time>
      </trkpt>
      <trkpt lat="43.5488" lon="6.13434">
        <ele>377.3</ele>
        <time>2018-01-07T11:18:36Z</time>
      </trkpt>
      <trkpt lat="43.5489" lon="6.13434">
        <ele>376.6</ele>
        <time>2018-01-07T11:18:45Z</time>
      </trkpt>
      <trkpt lat="43.54901" lon="6.13422">
        <ele>376.4</ele>
        <time>2018-01-07T11:18:50Z</time>
      </trkpt>
      <trkpt lat="43.5491" lon="6.13426">
        <ele>375.5</ele>
        <time>2018-01-07T11:19:09Z</time>
      </trkpt>
      <trkpt lat="43.54919" lon="6.13425">
        <ele>374.4</ele>
        <time>2018-01-07T11:19:18Z</time>
      </trkpt>
      <trkpt lat="43.54929" lon="6.13424">
        <ele>373.4</ele>
        <time>2018-01-07T11:19:29Z</time>
      </trkpt>
      <trkpt lat="43.54938" lon="6.1342">
        <ele>372.9</ele>
        <time>2018-01-07T11:19:35Z</time>
      </trkpt>
      <trkpt lat="43.54947" lon="6.13418">
        <ele>372</ele>
        <time>2018-01-07T11:19:44Z</time>
      </trkpt>
      <trkpt lat="43.54956" lon="6.13413">
        <ele>371.5</ele>
        <time>2018-01-07T11:19:51Z</time>
      </trkpt>
      <trkpt lat="43.54965" lon="6.13411">
        <ele>369.9</ele>
        <time>2018-01-07T11:20:08Z</time>
      </trkpt>
      <trkpt lat="43.54974" lon="6.13405">
        <ele>369.6</ele>
        <time>2018-01-07T11:20:17Z</time>
      </trkpt>
      <trkpt lat="43.54981" lon="6.13394">
        <ele>369.6</ele>
        <time>2018-01-07T11:20:21Z</time>
      </trkpt>
      <trkpt lat="43.54987" lon="6.13382">
        <ele>369.7</ele>
        <time>2018-01-07T11:20:24Z</time>
      </trkpt>
      <trkpt lat="43.54992" lon="6.13372">
        <ele>369.3</ele>
        <time>2018-01-07T11:20:34Z</time>
      </trkpt>
      <trkpt lat="43.54996" lon="6.1336">
        <ele>368.8</ele>
        <time>2018-01-07T11:20:50Z</time>
      </trkpt>
      <trkpt lat="43.55002" lon="6.13348">
        <ele>368.8</ele>
        <time>2018-01-07T11:20:57Z</time>
      </trkpt>
      <trkpt lat="43.5501" lon="6.1334">
        <ele>369.6</ele>
        <time>2018-01-07T11:21:08Z</time>
      </trkpt>
      <trkpt lat="43.55019" lon="6.1333">
        <ele>369.9</ele>
        <time>2018-01-07T11:21:13Z</time>
      </trkpt>
      <trkpt lat="43.55026" lon="6.1332">
        <ele>369.9</ele>
        <time>2018-01-07T11:21:18Z</time>
      </trkpt>
      <trkpt lat="43.55033" lon="6.13309">
        <ele>369.9</ele>
        <time>2018-01-07T11:21:22Z</time>
      </trkpt>
      <trkpt lat="43.55037" lon="6.13296">
        <ele>369.4</ele>
        <time>2018-01-07T11:21:35Z</time>
      </trkpt>
      <trkpt lat="43.55044" lon="6.13288">
        <ele>369.4</ele>
        <time>2018-01-07T11:21:52Z</time>
      </trkpt>
      <trkpt lat="43.55052" lon="6.13279">
        <ele>369.4</ele>
        <time>2018-01-07T11:21:56Z</time>
      </trkpt>
      <trkpt lat="43.55062" lon="6.13264">
        <ele>369</ele>
        <time>2018-01-07T11:22:03Z</time>
      </trkpt>
      <trkpt lat="43.55068" lon="6.13254">
        <ele>368</ele>
        <time>2018-01-07T11:22:17Z</time>
      </trkpt>
      <trkpt lat="43.55077" lon="6.13247">
        <ele>367.8</ele>
        <time>2018-01-07T11:22:25Z</time>
      </trkpt>
      <trkpt lat="43.55085" lon="6.1324">
        <ele>366.4</ele>
        <time>2018-01-07T11:22:39Z</time>
      </trkpt>
      <trkpt lat="43.5509" lon="6.1323">
        <ele>365.8</ele>
        <time>2018-01-07T11:22:44Z</time>
      </trkpt>
      <trkpt lat="43.55098" lon="6.13224">
        <ele>365.4</ele>
        <time>2018-01-07T11:22:57Z</time>
      </trkpt>
      <trkpt lat="43.55102" lon="6.13212">
        <ele>365</ele>
        <time>2018-01-07T11:23:06Z</time>
      </trkpt>
      <trkpt lat="43.5511" lon="6.13203">
        <ele>364.6</ele>
        <time>2018-01-07T11:23:11Z</time>
      </trkpt>
      <trkpt lat="43.55118" lon="6.13196">
        <ele>364.6</ele>
        <time>2018-01-07T11:23:15Z</time>
      </trkpt>
      <trkpt lat="43.55123" lon="6.13182">
        <ele>364.5</ele>
        <time>2018-01-07T11:23:18Z</time>
      </trkpt>
      <trkpt lat="43.55129" lon="6.13172">
        <ele>364.3</ele>
        <time>2018-01-07T11:23:23Z</time>
      </trkpt>
      <trkpt lat="43.55137" lon="6.13163">
        <ele>363.5</ele>
        <time>2018-01-07T11:23:37Z</time>
      </trkpt>
      <trkpt lat="43.55144" lon="6.13155">
        <ele>363.2</ele>
        <time>2018-01-07T11:23:47Z</time>
      </trkpt>
      <trkpt lat="43.55146" lon="6.13142">
        <ele>362.7</ele>
        <time>2018-01-07T11:24:01Z</time>
      </trkpt>
      <trkpt lat="43.55151" lon="6.13129">
        <ele>362.4</ele>
        <time>2018-01-07T11:24:16Z</time>
      </trkpt>
      <trkpt lat="43.55158" lon="6.13119">
        <ele>362.4</ele>
        <time>2018-01-07T11:24:23Z</time>
      </trkpt>
      <trkpt lat="43.55162" lon="6.13107">
        <ele>363</ele>
        <time>2018-01-07T11:24:35Z</time>
      </trkpt>
      <trkpt lat="43.55166" lon="6.13096">
        <ele>363.3</ele>
        <time>2018-01-07T11:24:43Z</time>
      </trkpt>
      <trkpt lat="43.55171" lon="6.13082">
        <ele>363.8</ele>
        <time>2018-01-07T11:24:55Z</time>
      </trkpt>
      <trkpt lat="43.55174" lon="6.13069">
        <ele>363.8</ele>
        <time>2018-01-07T11:24:58Z</time>
      </trkpt>
      <trkpt lat="43.55181" lon="6.1306">
        <ele>363.8</ele>
        <time>2018-01-07T11:25:03Z</time>
      </trkpt>
      <trkpt lat="43.5519" lon="6.13052">
        <ele>362</ele>
        <time>2018-01-07T11:25:19Z</time>
      </trkpt>
      <trkpt lat="43.55196" lon="6.13042">
        <ele>362.3</ele>
        <time>2018-01-07T11:25:24Z</time>
      </trkpt>
      <trkpt lat="43.552" lon="6.1303">
        <ele>360.8</ele>
        <time>2018-01-07T11:25:36Z</time>
      </trkpt>
      <trkpt lat="43.55204" lon="6.13019">
        <ele>359.8</ele>
        <time>2018-01-07T11:25:44Z</time>
      </trkpt>
      <trkpt lat="43.5521" lon="6.13008">
        <ele>357.5</ele>
        <time>2018-01-07T11:26:05Z</time>
      </trkpt>
      <trkpt lat="43.5522" lon="6.12997">
        <ele>357.1</ele>
        <time>2018-01-07T11:26:11Z</time>
      </trkpt>
      <trkpt lat="43.55226" lon="6.12984">
        <ele>356.7</ele>
        <time>2018-01-07T11:26:15Z</time>
      </trkpt>
      <trkpt lat="43.55233" lon="6.12969">
        <ele>356.2</ele>
        <time>2018-01-07T11:26:18Z</time>
      </trkpt>
      <trkpt lat="43.55241" lon="6.12959">
        <ele>352</ele>
        <time>2018-01-07T11:26:47Z</time>
      </trkpt>
      <trkpt lat="43.55252" lon="6.1295">
        <ele>350</ele>
        <time>2018-01-07T11:27:08Z</time>
      </trkpt>
      <trkpt lat="43.55249" lon="6.12962">
        <ele>349.9</ele>
        <time>2018-01-07T11:27:28Z</time>
      </trkpt>
      <trkpt lat="43.55246" lon="6.12978">
        <ele>349.9</ele>
        <time>2018-01-07T11:27:34Z</time>
      </trkpt>
      <trkpt lat="43.55244" lon="6.1299">
        <ele>349.6</ele>
        <time>2018-01-07T11:27:41Z</time>
      </trkpt>
      <trkpt lat="43.55245" lon="6.13003">
        <ele>349.3</ele>
        <time>2018-01-07T11:27:54Z</time>
      </trkpt>
      <trkpt lat="43.55247" lon="6.13016">
        <ele>348.8</ele>
        <time>2018-01-07T11:28:13Z</time>
      </trkpt>
      <trkpt lat="43.55245" lon="6.13031">
        <ele>348</ele>
        <time>2018-01-07T11:28:26Z</time>
      </trkpt>
      <trkpt lat="43.55252" lon="6.13039">
        <ele>348.8</ele>
        <time>2018-01-07T11:28:38Z</time>
      </trkpt>
      <trkpt lat="43.55249" lon="6.13055">
        <ele>348.8</ele>
        <time>2018-01-07T11:28:45Z</time>
      </trkpt>
      <trkpt lat="43.55256" lon="6.13064">
        <ele>349.1</ele>
        <time>2018-01-07T11:28:59Z</time>
      </trkpt>
      <trkpt lat="43.55264" lon="6.13072">
        <ele>349.2</ele>
        <time>2018-01-07T11:29:08Z</time>
      </trkpt>
      <trkpt lat="43.55262" lon="6.13085">
        <ele>349.2</ele>
        <time>2018-01-07T11:29:18Z</time>
      </trkpt>
      <trkpt lat="43.55267" lon="6.13097">
        <ele>349.2</ele>
        <time>2018-01-07T11:29:26Z</time>
      </trkpt>
      <trkpt lat="43.55267" lon="6.1311">
        <ele>349.2</ele>
        <time>2018-01-07T11:29:32Z</time>
      </trkpt>
      <trkpt lat="43.55269" lon="6.13122">
        <ele>349.3</ele>
        <time>2018-01-07T11:29:40Z</time>
      </trkpt>
      <trkpt lat="43.55278" lon="6.13126">
        <ele>349.3</ele>
        <time>2018-01-07T11:29:50Z</time>
      </trkpt>
      <trkpt lat="43.55277" lon="6.13139">
        <ele>349.3</ele>
        <time>2018-01-07T11:29:56Z</time>
      </trkpt>
      <trkpt lat="43.55279" lon="6.13152">
        <ele>349.4</ele>
        <time>2018-01-07T11:30:04Z</time>
      </trkpt>
      <trkpt lat="43.55284" lon="6.13164">
        <ele>349.8</ele>
        <time>2018-01-07T11:30:17Z</time>
      </trkpt>
      <trkpt lat="43.5528" lon="6.13176">
        <ele>350.2</ele>
        <time>2018-01-07T11:30:29Z</time>
      </trkpt>
      <trkpt lat="43.55273" lon="6.13185">
        <ele>349</ele>
        <time>2018-01-07T11:30:46Z</time>
      </trkpt>
      <trkpt lat="43.5527" lon="6.13199">
        <ele>349.9</ele>
        <time>2018-01-07T11:30:53Z</time>
      </trkpt>
      <trkpt lat="43.55265" lon="6.13209">
        <ele>349.8</ele>
        <time>2018-01-07T11:30:58Z</time>
      </trkpt>
      <trkpt lat="43.55258" lon="6.13219">
        <ele>349.6</ele>
        <time>2018-01-07T11:31:03Z</time>
      </trkpt>
      <trkpt lat="43.5525" lon="6.13226">
        <ele>349.2</ele>
        <time>2018-01-07T11:31:16Z</time>
      </trkpt>
      <trkpt lat="43.55244" lon="6.13235">
        <ele>349.2</ele>
        <time>2018-01-07T11:31:23Z</time>
      </trkpt>
      <trkpt lat="43.55233" lon="6.1324">
        <ele>349.1</ele>
        <time>2018-01-07T11:31:32Z</time>
      </trkpt>
      <trkpt lat="43.5523" lon="6.13253">
        <ele>348.8</ele>
        <time>2018-01-07T11:31:44Z</time>
      </trkpt>
      <trkpt lat="43.55227" lon="6.13268">
        <ele>348.6</ele>
        <time>2018-01-07T11:31:50Z</time>
      </trkpt>
      <trkpt lat="43.55234" lon="6.13278">
        <ele>348</ele>
        <time>2018-01-07T11:31:57Z</time>
      </trkpt>
      <trkpt lat="43.55238" lon="6.13291">
        <ele>348.2</ele>
        <time>2018-01-07T11:32:04Z</time>
      </trkpt>
      <trkpt lat="43.55241" lon="6.13305">
        <ele>348</ele>
        <time>2018-01-07T11:32:11Z</time>
      </trkpt>
      <trkpt lat="43.55245" lon="6.13317">
        <ele>348</ele>
        <time>2018-01-07T11:32:21Z</time>
      </trkpt>
      <trkpt lat="43.55256" lon="6.13324">
        <ele>348</ele>
        <time>2018-01-07T11:32:37Z</time>
      </trkpt>
      <trkpt lat="43.55261" lon="6.1334">
        <ele>347</ele>
        <time>2018-01-07T11:32:49Z</time>
      </trkpt>
      <trkpt lat="43.5526" lon="6.13356">
        <ele>347</ele>
        <time>2018-01-07T11:32:57Z</time>
      </trkpt>
      <trkpt lat="43.55263" lon="6.13372">
        <ele>346</ele>
        <time>2018-01-07T11:33:09Z</time>
      </trkpt>
      <trkpt lat="43.55264" lon="6.13385">
        <ele>346.4</ele>
        <time>2018-01-07T11:33:16Z</time>
      </trkpt>
      <trkpt lat="43.55264" lon="6.13399">
        <ele>346</ele>
        <time>2018-01-07T11:33:23Z</time>
      </trkpt>
      <trkpt lat="43.55262" lon="6.13421">
        <ele>346</ele>
        <time>2018-01-07T11:33:35Z</time>
      </trkpt>
      <trkpt lat="43.5526" lon="6.13439">
        <ele>346</ele>
        <time>2018-01-07T11:33:43Z</time>
      </trkpt>
      <trkpt lat="43.55254" lon="6.13458">
        <ele>346</ele>
        <time>2018-01-07T11:33:55Z</time>
      </trkpt>
      <trkpt lat="43.55261" lon="6.1347">
        <ele>346</ele>
        <time>2018-01-07T11:34:22Z</time>
      </trkpt>
      <trkpt lat="43.5526" lon="6.13483">
        <ele>346</ele>
        <time>2018-01-07T11:34:26Z</time>
      </trkpt>
      <trkpt lat="43.55262" lon="6.13506">
        <ele>345</ele>
        <time>2018-01-07T11:34:34Z</time>
      </trkpt>
      <trkpt lat="43.55259" lon="6.13528">
        <ele>344</ele>
        <time>2018-01-07T11:34:46Z</time>
      </trkpt>
      <trkpt lat="43.55267" lon="6.13535">
        <ele>343</ele>
        <time>2018-01-07T11:34:58Z</time>
      </trkpt>
      <trkpt lat="43.5527" lon="6.13552">
        <ele>344</ele>
        <time>2018-01-07T11:35:14Z</time>
      </trkpt>
      <trkpt lat="43.55272" lon="6.13571">
        <ele>343</ele>
        <time>2018-01-07T11:35:30Z</time>
      </trkpt>
      <trkpt lat="43.55273" lon="6.13587">
        <ele>342</ele>
        <time>2018-01-07T11:35:38Z</time>
      </trkpt>
      <trkpt lat="43.55273" lon="6.13602">
        <ele>342</ele>
        <time>2018-01-07T11:35:46Z</time>
      </trkpt>
      <trkpt lat="43.55273" lon="6.13622">
        <ele>342</ele>
        <time>2018-01-07T11:35:58Z</time>
      </trkpt>
      <trkpt lat="43.55273" lon="6.13638">
        <ele>342</ele>
        <time>2018-01-07T11:36:06Z</time>
      </trkpt>
      <trkpt lat="43.5528" lon="6.13649">
        <ele>342</ele>
        <time>2018-01-07T11:36:18Z</time>
      </trkpt>
      <trkpt lat="43.55283" lon="6.13661">
        <ele>342</ele>
        <time>2018-01-07T11:36:26Z</time>
      </trkpt>
      <trkpt lat="43.55286" lon="6.13676">
        <ele>342</ele>
        <time>2018-01-07T11:36:34Z</time>
      </trkpt>
      <trkpt lat="43.55289" lon="6.1369">
        <ele>343</ele>
        <time>2018-01-07T11:36:46Z</time>
      </trkpt>
      <trkpt lat="43.5529" lon="6.13704">
        <ele>343</ele>
        <time>2018-01-07T11:37:02Z</time>
      </trkpt>
      <trkpt lat="43.55293" lon="6.13719">
        <ele>343</ele>
        <time>2018-01-07T11:37:14Z</time>
      </trkpt>
      <trkpt lat="43.5529" lon="6.13737">
        <ele>343</ele>
        <time>2018-01-07T11:37:22Z</time>
      </trkpt>
      <trkpt lat="43.55289" lon="6.1375">
        <ele>344</ele>
        <time>2018-01-07T11:37:34Z</time>
      </trkpt>
      <trkpt lat="43.55291" lon="6.13766">
        <ele>345</ele>
        <time>2018-01-07T11:37:50Z</time>
      </trkpt>
      <trkpt lat="43.55286" lon="6.13785">
        <ele>344</ele>
        <time>2018-01-07T11:38:02Z</time>
      </trkpt>
      <trkpt lat="43.55286" lon="6.13798">
        <ele>344</ele>
        <time>2018-01-07T11:38:10Z</time>
      </trkpt>
      <trkpt lat="43.55286" lon="6.13811">
        <ele>343</ele>
        <time>2018-01-07T11:38:18Z</time>
      </trkpt>
      <trkpt lat="43.55283" lon="6.13823">
        <ele>343</ele>
        <time>2018-01-07T11:38:26Z</time>
      </trkpt>
      <trkpt lat="43.5528" lon="6.13842">
        <ele>343</ele>
        <time>2018-01-07T11:38:38Z</time>
      </trkpt>
      <trkpt lat="43.55276" lon="6.13857">
        <ele>342</ele>
        <time>2018-01-07T11:38:46Z</time>
      </trkpt>
      <trkpt lat="43.55275" lon="6.13871">
        <ele>342</ele>
        <time>2018-01-07T11:38:58Z</time>
      </trkpt>
      <trkpt lat="43.55281" lon="6.13918">
        <ele>342</ele>
        <time>2018-01-07T12:32:53Z</time>
      </trkpt>
      <trkpt lat="43.5527" lon="6.1393">
        <ele>342</ele>
        <time>2018-01-07T12:33:04Z</time>
      </trkpt>
      <trkpt lat="43.55265" lon="6.13942">
        <ele>343</ele>
        <time>2018-01-07T12:33:15Z</time>
      </trkpt>
      <trkpt lat="43.55257" lon="6.13938">
        <ele>344</ele>
        <time>2018-01-07T12:33:41Z</time>
      </trkpt>
      <trkpt lat="43.55242" lon="6.13947">
        <ele>344</ele>
        <time>2018-01-07T12:33:49Z</time>
      </trkpt>
      <trkpt lat="43.5523" lon="6.13954">
        <ele>344</ele>
        <time>2018-01-07T12:33:57Z</time>
      </trkpt>
      <trkpt lat="43.55234" lon="6.13938">
        <ele>344</ele>
        <time>2018-01-07T12:34:05Z</time>
      </trkpt>
      <trkpt lat="43.55223" lon="6.13935">
        <ele>343</ele>
        <time>2018-01-07T12:34:13Z</time>
      </trkpt>
      <trkpt lat="43.55222" lon="6.13922">
        <ele>342</ele>
        <time>2018-01-07T12:34:29Z</time>
      </trkpt>
      <trkpt lat="43.5523" lon="6.13914">
        <ele>342</ele>
        <time>2018-01-07T12:34:37Z</time>
      </trkpt>
      <trkpt lat="43.55218" lon="6.13918">
        <ele>343</ele>
        <time>2018-01-07T12:34:45Z</time>
      </trkpt>
      <trkpt lat="43.5521" lon="6.13913">
        <ele>343</ele>
        <time>2018-01-07T12:34:53Z</time>
      </trkpt>
      <trkpt lat="43.552" lon="6.13919">
        <ele>343</ele>
        <time>2018-01-07T12:34:57Z</time>
      </trkpt>
      <trkpt lat="43.55188" lon="6.13928">
        <ele>342</ele>
        <time>2018-01-07T12:35:02Z</time>
      </trkpt>
      <trkpt lat="43.55178" lon="6.13939">
        <ele>342</ele>
        <time>2018-01-07T12:35:06Z</time>
      </trkpt>
      <trkpt lat="43.55169" lon="6.13943">
        <ele>341</ele>
        <time>2018-01-07T12:35:22Z</time>
      </trkpt>
      <trkpt lat="43.55146" lon="6.13966">
        <ele>340</ele>
        <time>2018-01-07T12:35:45Z</time>
      </trkpt>
      <trkpt lat="43.5513" lon="6.13976">
        <ele>340</ele>
        <time>2018-01-07T12:35:53Z</time>
      </trkpt>
      <trkpt lat="43.55122" lon="6.13988">
        <ele>340</ele>
        <time>2018-01-07T12:36:01Z</time>
      </trkpt>
      <trkpt lat="43.55098" lon="6.14016">
        <ele>339</ele>
        <time>2018-01-07T12:36:27Z</time>
      </trkpt>
      <trkpt lat="43.55087" lon="6.14017">
        <ele>339</ele>
        <time>2018-01-07T12:36:35Z</time>
      </trkpt>
      <trkpt lat="43.5506" lon="6.1404">
        <ele>340</ele>
        <time>2018-01-07T12:37:07Z</time>
      </trkpt>
      <trkpt lat="43.55049" lon="6.14064">
        <ele>341</ele>
        <time>2018-01-07T12:37:17Z</time>
      </trkpt>
      <trkpt lat="43.5505" lon="6.14082">
        <ele>345</ele>
        <time>2018-01-07T12:37:43Z</time>
      </trkpt>
      <trkpt lat="43.55037" lon="6.1409">
        <ele>345</ele>
        <time>2018-01-07T12:37:51Z</time>
      </trkpt>
      <trkpt lat="43.55045" lon="6.1409">
        <ele>347</ele>
        <time>2018-01-07T12:38:08Z</time>
      </trkpt>
      <trkpt lat="43.55049" lon="6.14075">
        <ele>349</ele>
        <time>2018-01-07T12:38:22Z</time>
      </trkpt>
      <trkpt lat="43.55037" lon="6.14072">
        <ele>352</ele>
        <time>2018-01-07T12:38:46Z</time>
      </trkpt>
      <trkpt lat="43.55024" lon="6.14075">
        <ele>353</ele>
        <time>2018-01-07T12:38:54Z</time>
      </trkpt>
      <trkpt lat="43.5501" lon="6.14086">
        <ele>353</ele>
        <time>2018-01-07T12:38:58Z</time>
      </trkpt>
      <trkpt lat="43.54998" lon="6.141">
        <ele>354</ele>
        <time>2018-01-07T12:39:02Z</time>
      </trkpt>
      <trkpt lat="43.54975" lon="6.14125">
        <ele>355</ele>
        <time>2018-01-07T12:39:13Z</time>
      </trkpt>
      <trkpt lat="43.54976" lon="6.14111">
        <ele>355</ele>
        <time>2018-01-07T12:39:21Z</time>
      </trkpt>
      <trkpt lat="43.54962" lon="6.14113">
        <ele>355</ele>
        <time>2018-01-07T12:39:29Z</time>
      </trkpt>
      <trkpt lat="43.54969" lon="6.141">
        <ele>354</ele>
        <time>2018-01-07T12:39:37Z</time>
      </trkpt>
      <trkpt lat="43.54958" lon="6.14091">
        <ele>353</ele>
        <time>2018-01-07T12:39:46Z</time>
      </trkpt>
      <trkpt lat="43.54948" lon="6.14096">
        <ele>353</ele>
        <time>2018-01-07T12:39:52Z</time>
      </trkpt>
      <trkpt lat="43.54939" lon="6.14104">
        <ele>353</ele>
        <time>2018-01-07T12:39:56Z</time>
      </trkpt>
      <trkpt lat="43.54928" lon="6.14104">
        <ele>352</ele>
        <time>2018-01-07T12:40:12Z</time>
      </trkpt>
      <trkpt lat="43.54921" lon="6.14113">
        <ele>352</ele>
        <time>2018-01-07T12:40:16Z</time>
      </trkpt>
      <trkpt lat="43.54898" lon="6.14136">
        <ele>352</ele>
        <time>2018-01-07T12:40:23Z</time>
      </trkpt>
      <trkpt lat="43.54897" lon="6.14115">
        <ele>351</ele>
        <time>2018-01-07T12:40:38Z</time>
      </trkpt>
      <trkpt lat="43.54888" lon="6.14124">
        <ele>351</ele>
        <time>2018-01-07T12:40:42Z</time>
      </trkpt>
      <trkpt lat="43.54878" lon="6.14127">
        <ele>351</ele>
        <time>2018-01-07T12:40:58Z</time>
      </trkpt>
      <trkpt lat="43.5486" lon="6.14137">
        <ele>351</ele>
        <time>2018-01-07T12:41:10Z</time>
      </trkpt>
      <trkpt lat="43.54834" lon="6.14166">
        <ele>350</ele>
        <time>2018-01-07T12:41:18Z</time>
      </trkpt>
      <trkpt lat="43.54839" lon="6.14156">
        <ele>349</ele>
        <time>2018-01-07T12:41:43Z</time>
      </trkpt>
      <trkpt lat="43.54833" lon="6.14166">
        <ele>348</ele>
        <time>2018-01-07T12:41:52Z</time>
      </trkpt>
      <trkpt lat="43.54822" lon="6.14173">
        <ele>347</ele>
        <time>2018-01-07T12:42:02Z</time>
      </trkpt>
      <trkpt lat="43.54815" lon="6.14187">
        <ele>345</ele>
        <time>2018-01-07T12:42:20Z</time>
      </trkpt>
      <trkpt lat="43.54803" lon="6.14199">
        <ele>344</ele>
        <time>2018-01-07T12:42:34Z</time>
      </trkpt>
      <trkpt lat="43.54793" lon="6.14205">
        <ele>342</ele>
        <time>2018-01-07T12:42:42Z</time>
      </trkpt>
      <trkpt lat="43.5478" lon="6.14214">
        <ele>342</ele>
        <time>2018-01-07T12:42:46Z</time>
      </trkpt>
      <trkpt lat="43.54769" lon="6.14224">
        <ele>342</ele>
        <time>2018-01-07T12:42:54Z</time>
      </trkpt>
      <trkpt lat="43.5476" lon="6.14228">
        <ele>341</ele>
        <time>2018-01-07T12:42:58Z</time>
      </trkpt>
      <trkpt lat="43.54751" lon="6.14236">
        <ele>341</ele>
        <time>2018-01-07T12:43:02Z</time>
      </trkpt>
      <trkpt lat="43.54741" lon="6.14241">
        <ele>340</ele>
        <time>2018-01-07T12:43:10Z</time>
      </trkpt>
      <trkpt lat="43.54731" lon="6.14239">
        <ele>340</ele>
        <time>2018-01-07T12:43:24Z</time>
      </trkpt>
      <trkpt lat="43.54719" lon="6.14252">
        <ele>339</ele>
        <time>2018-01-07T12:43:29Z</time>
      </trkpt>
      <trkpt lat="43.54708" lon="6.1425">
        <ele>338</ele>
        <time>2018-01-07T12:43:51Z</time>
      </trkpt>
      <trkpt lat="43.54701" lon="6.14258">
        <ele>338</ele>
        <time>2018-01-07T12:43:55Z</time>
      </trkpt>
      <trkpt lat="43.54695" lon="6.14268">
        <ele>336</ele>
        <time>2018-01-07T12:44:15Z</time>
      </trkpt>
      <trkpt lat="43.54686" lon="6.14278">
        <ele>336</ele>
        <time>2018-01-07T12:44:23Z</time>
      </trkpt>
      <trkpt lat="43.54673" lon="6.14288">
        <ele>334</ele>
        <time>2018-01-07T12:44:39Z</time>
      </trkpt>
      <trkpt lat="43.54664" lon="6.14288">
        <ele>333</ele>
        <time>2018-01-07T12:44:53Z</time>
      </trkpt>
      <trkpt lat="43.54653" lon="6.14294">
        <ele>333</ele>
        <time>2018-01-07T12:44:57Z</time>
      </trkpt>
      <trkpt lat="43.54642" lon="6.14302">
        <ele>332</ele>
        <time>2018-01-07T12:45:05Z</time>
      </trkpt>
      <trkpt lat="43.54651" lon="6.14281">
        <ele>331</ele>
        <time>2018-01-07T12:45:20Z</time>
      </trkpt>
      <trkpt lat="43.5463" lon="6.14297">
        <ele>331</ele>
        <time>2018-01-07T12:45:29Z</time>
      </trkpt>
      <trkpt lat="43.54619" lon="6.14305">
        <ele>331</ele>
        <time>2018-01-07T12:45:33Z</time>
      </trkpt>
      <trkpt lat="43.54607" lon="6.1431">
        <ele>331</ele>
        <time>2018-01-07T12:45:41Z</time>
      </trkpt>
      <trkpt lat="43.54593" lon="6.1432">
        <ele>331</ele>
        <time>2018-01-07T12:45:46Z</time>
      </trkpt>
      <trkpt lat="43.54584" lon="6.14324">
        <ele>331</ele>
        <time>2018-01-07T12:45:54Z</time>
      </trkpt>
      <trkpt lat="43.54579" lon="6.14311">
        <ele>331</ele>
        <time>2018-01-07T12:46:08Z</time>
      </trkpt>
      <trkpt lat="43.54567" lon="6.1432">
        <ele>331</ele>
        <time>2018-01-07T12:46:16Z</time>
      </trkpt>
      <trkpt lat="43.54553" lon="6.14331">
        <ele>330</ele>
        <time>2018-01-07T12:46:24Z</time>
      </trkpt>
      <trkpt lat="43.54536" lon="6.14335">
        <ele>330</ele>
        <time>2018-01-07T12:46:34Z</time>
      </trkpt>
      <trkpt lat="43.54524" lon="6.14345">
        <ele>330</ele>
        <time>2018-01-07T12:46:42Z</time>
      </trkpt>
      <trkpt lat="43.5453" lon="6.14362">
        <ele>329</ele>
        <time>2018-01-07T12:46:56Z</time>
      </trkpt>
      <trkpt lat="43.54533" lon="6.14379">
        <ele>329</ele>
        <time>2018-01-07T12:47:09Z</time>
      </trkpt>
      <trkpt lat="43.54541" lon="6.14393">
        <ele>329</ele>
        <time>2018-01-07T12:47:22Z</time>
      </trkpt>
      <trkpt lat="43.54545" lon="6.14405">
        <ele>329</ele>
        <time>2018-01-07T12:47:30Z</time>
      </trkpt>
      <trkpt lat="43.54553" lon="6.14412">
        <ele>329</ele>
        <time>2018-01-07T12:47:42Z</time>
      </trkpt>
      <trkpt lat="43.5456" lon="6.14423">
        <ele>329</ele>
        <time>2018-01-07T12:47:50Z</time>
      </trkpt>
      <trkpt lat="43.54561" lon="6.14439">
        <ele>329</ele>
        <time>2018-01-07T12:47:58Z</time>
      </trkpt>
      <trkpt lat="43.54568" lon="6.1445">
        <ele>330</ele>
        <time>2018-01-07T12:48:08Z</time>
      </trkpt>
      <trkpt lat="43.54573" lon="6.14471">
        <ele>330</ele>
        <time>2018-01-07T12:48:25Z</time>
      </trkpt>
      <trkpt lat="43.54566" lon="6.14484">
        <ele>332</ele>
        <time>2018-01-07T12:48:36Z</time>
      </trkpt>
      <trkpt lat="43.54557" lon="6.14491">
        <ele>332</ele>
        <time>2018-01-07T12:48:46Z</time>
      </trkpt>
      <trkpt lat="43.54544" lon="6.14489">
        <ele>332</ele>
        <time>2018-01-07T12:49:05Z</time>
      </trkpt>
      <trkpt lat="43.54536" lon="6.14477">
        <ele>332</ele>
        <time>2018-01-07T12:49:13Z</time>
      </trkpt>
      <trkpt lat="43.54535" lon="6.14466">
        <ele>331</ele>
        <time>2018-01-07T12:49:17Z</time>
      </trkpt>
      <trkpt lat="43.54534" lon="6.14468">
        <ele>331</ele>
        <time>2018-01-07T12:49:26Z</time>
      </trkpt>
      <trkpt lat="43.54534" lon="6.14461">
        <ele>330</ele>
        <time>2018-01-07T12:49:31Z</time>
      </trkpt>
      <trkpt lat="43.54524" lon="6.14467">
        <ele>330</ele>
        <time>2018-01-07T12:49:41Z</time>
      </trkpt>
      <trkpt lat="43.54514" lon="6.14478">
        <ele>330</ele>
        <time>2018-01-07T12:49:53Z</time>
      </trkpt>
      <trkpt lat="43.545" lon="6.14502">
        <ele>330</ele>
        <time>2018-01-07T12:50:01Z</time>
      </trkpt>
      <trkpt lat="43.54494" lon="6.14512">
        <ele>330</ele>
        <time>2018-01-07T12:50:05Z</time>
      </trkpt>
      <trkpt lat="43.54482" lon="6.14525">
        <ele>330</ele>
        <time>2018-01-07T12:50:09Z</time>
      </trkpt>
      <trkpt lat="43.54469" lon="6.14537">
        <ele>329</ele>
        <time>2018-01-07T12:50:21Z</time>
      </trkpt>
      <trkpt lat="43.54467" lon="6.1455">
        <ele>329</ele>
        <time>2018-01-07T12:50:29Z</time>
      </trkpt>
      <trkpt lat="43.5446" lon="6.14563">
        <ele>330</ele>
        <time>2018-01-07T12:50:38Z</time>
      </trkpt>
      <trkpt lat="43.54454" lon="6.14583">
        <ele>330</ele>
        <time>2018-01-07T12:51:08Z</time>
      </trkpt>
      <trkpt lat="43.54447" lon="6.14599">
        <ele>330</ele>
        <time>2018-01-07T12:51:12Z</time>
      </trkpt>
      <trkpt lat="43.54452" lon="6.14609">
        <ele>330</ele>
        <time>2018-01-07T12:51:21Z</time>
      </trkpt>
      <trkpt lat="43.54452" lon="6.14624">
        <ele>330</ele>
        <time>2018-01-07T12:51:30Z</time>
      </trkpt>
      <trkpt lat="43.54454" lon="6.14633">
        <ele>330</ele>
        <time>2018-01-07T12:51:34Z</time>
      </trkpt>
      <trkpt lat="43.54454" lon="6.14638">
        <ele>329</ele>
        <time>2018-01-07T12:51:54Z</time>
      </trkpt>
      <trkpt lat="43.54465" lon="6.1464">
        <ele>328</ele>
        <time>2018-01-07T12:52:08Z</time>
      </trkpt>
      <trkpt lat="43.54475" lon="6.14636">
        <ele>327</ele>
        <time>2018-01-07T12:52:16Z</time>
      </trkpt>
      <trkpt lat="43.54472" lon="6.14651">
        <ele>327</ele>
        <time>2018-01-07T12:52:24Z</time>
      </trkpt>
      <trkpt lat="43.54472" lon="6.14665">
        <ele>327</ele>
        <time>2018-01-07T12:52:36Z</time>
      </trkpt>
      <trkpt lat="43.54463" lon="6.14687">
        <ele>326</ele>
        <time>2018-01-07T12:52:48Z</time>
      </trkpt>
      <trkpt lat="43.54456" lon="6.14703">
        <ele>326</ele>
        <time>2018-01-07T12:52:56Z</time>
      </trkpt>
      <trkpt lat="43.5446" lon="6.14717">
        <ele>325</ele>
        <time>2018-01-07T12:53:08Z</time>
      </trkpt>
      <trkpt lat="43.54458" lon="6.14732">
        <ele>325</ele>
        <time>2018-01-07T12:53:20Z</time>
      </trkpt>
      <trkpt lat="43.5445" lon="6.14739">
        <ele>325</ele>
        <time>2018-01-07T12:53:44Z</time>
      </trkpt>
      <trkpt lat="43.54441" lon="6.14739">
        <ele>326</ele>
        <time>2018-01-07T12:53:52Z</time>
      </trkpt>
      <trkpt lat="43.54429" lon="6.14741">
        <ele>326</ele>
        <time>2018-01-07T12:54:01Z</time>
      </trkpt>
      <trkpt lat="43.54419" lon="6.14731">
        <ele>326</ele>
        <time>2018-01-07T12:54:14Z</time>
      </trkpt>
      <trkpt lat="43.54405" lon="6.14739">
        <ele>326</ele>
        <time>2018-01-07T12:54:22Z</time>
      </trkpt>
      <trkpt lat="43.54397" lon="6.14745">
        <ele>325</ele>
        <time>2018-01-07T12:54:26Z</time>
      </trkpt>
      <trkpt lat="43.54388" lon="6.1475">
        <ele>325</ele>
        <time>2018-01-07T12:54:30Z</time>
      </trkpt>
      <trkpt lat="43.5438" lon="6.1476">
        <ele>325</ele>
        <time>2018-01-07T12:54:34Z</time>
      </trkpt>
      <trkpt lat="43.54372" lon="6.14768">
        <ele>325</ele>
        <time>2018-01-07T12:54:38Z</time>
      </trkpt>
      <trkpt lat="43.54363" lon="6.14755">
        <ele>326</ele>
        <time>2018-01-07T12:54:54Z</time>
      </trkpt>
      <trkpt lat="43.54353" lon="6.14752">
        <ele>326</ele>
        <time>2018-01-07T12:55:05Z</time>
      </trkpt>
      <trkpt lat="43.54336" lon="6.14766">
        <ele>326</ele>
        <time>2018-01-07T12:55:17Z</time>
      </trkpt>
      <trkpt lat="43.54325" lon="6.1477">
        <ele>326</ele>
        <time>2018-01-07T12:55:32Z</time>
      </trkpt>
      <trkpt lat="43.54317" lon="6.14778">
        <ele>326</ele>
        <time>2018-01-07T12:55:36Z</time>
      </trkpt>
      <trkpt lat="43.54307" lon="6.14771">
        <ele>326</ele>
        <time>2018-01-07T12:55:52Z</time>
      </trkpt>
      <trkpt lat="43.54296" lon="6.14785">
        <ele>326</ele>
        <time>2018-01-07T12:56:12Z</time>
      </trkpt>
      <trkpt lat="43.54289" lon="6.14797">
        <ele>326</ele>
        <time>2018-01-07T12:56:20Z</time>
      </trkpt>
      <trkpt lat="43.54282" lon="6.14808">
        <ele>326</ele>
        <time>2018-01-07T12:56:28Z</time>
      </trkpt>
      <trkpt lat="43.54272" lon="6.14815">
        <ele>326</ele>
        <time>2018-01-07T12:56:44Z</time>
      </trkpt>
      <trkpt lat="43.54259" lon="6.14827">
        <ele>325</ele>
        <time>2018-01-07T12:57:04Z</time>
      </trkpt>
      <trkpt lat="43.54243" lon="6.14837">
        <ele>325</ele>
        <time>2018-01-07T12:57:13Z</time>
      </trkpt>
      <trkpt lat="43.54232" lon="6.14847">
        <ele>324</ele>
        <time>2018-01-07T12:57:23Z</time>
      </trkpt>
      <trkpt lat="43.54239" lon="6.14835">
        <ele>324</ele>
        <time>2018-01-07T12:57:31Z</time>
      </trkpt>
      <trkpt lat="43.54222" lon="6.14839">
        <ele>323</ele>
        <time>2018-01-07T12:57:39Z</time>
      </trkpt>
      <trkpt lat="43.54212" lon="6.14838">
        <ele>323</ele>
        <time>2018-01-07T12:57:44Z</time>
      </trkpt>
      <trkpt lat="43.54202" lon="6.14835">
        <ele>323</ele>
        <time>2018-01-07T12:57:50Z</time>
      </trkpt>
      <trkpt lat="43.54191" lon="6.14827">
        <ele>323</ele>
        <time>2018-01-07T12:58:02Z</time>
      </trkpt>
      <trkpt lat="43.54181" lon="6.14823">
        <ele>322</ele>
        <time>2018-01-07T12:58:22Z</time>
      </trkpt>
      <trkpt lat="43.5417" lon="6.14822">
        <ele>322</ele>
        <time>2018-01-07T12:58:30Z</time>
      </trkpt>
      <trkpt lat="43.54152" lon="6.14832">
        <ele>322</ele>
        <time>2018-01-07T12:58:50Z</time>
      </trkpt>
      <trkpt lat="43.54143" lon="6.1482">
        <ele>322</ele>
        <time>2018-01-07T12:58:58Z</time>
      </trkpt>
      <trkpt lat="43.5413" lon="6.14809">
        <ele>322</ele>
        <time>2018-01-07T12:59:06Z</time>
      </trkpt>
      <trkpt lat="43.54118" lon="6.1481">
        <ele>322</ele>
        <time>2018-01-07T12:59:22Z</time>
      </trkpt>
      <trkpt lat="43.54108" lon="6.14805">
        <ele>322</ele>
        <time>2018-01-07T12:59:30Z</time>
      </trkpt>
      <trkpt lat="43.54095" lon="6.14804">
        <ele>322</ele>
        <time>2018-01-07T12:59:38Z</time>
      </trkpt>
      <trkpt lat="43.541" lon="6.1479">
        <ele>322</ele>
        <time>2018-01-07T12:59:55Z</time>
      </trkpt>
      <trkpt lat="43.54096" lon="6.14778">
        <ele>322</ele>
        <time>2018-01-07T13:00:11Z</time>
      </trkpt>
      <trkpt lat="43.54081" lon="6.14778">
        <ele>322</ele>
        <time>2018-01-07T13:00:22Z</time>
      </trkpt>
      <trkpt lat="43.54069" lon="6.14772">
        <ele>321</ele>
        <time>2018-01-07T13:00:29Z</time>
      </trkpt>
      <trkpt lat="43.54052" lon="6.14767">
        <ele>320</ele>
        <time>2018-01-07T13:00:37Z</time>
      </trkpt>
      <trkpt lat="43.54034" lon="6.14771">
        <ele>320</ele>
        <time>2018-01-07T13:01:01Z</time>
      </trkpt>
      <trkpt lat="43.54014" lon="6.14774">
        <ele>319</ele>
        <time>2018-01-07T13:01:09Z</time>
      </trkpt>
      <trkpt lat="43.53998" lon="6.14776">
        <ele>319</ele>
        <time>2018-01-07T13:01:17Z</time>
      </trkpt>
      <trkpt lat="43.53979" lon="6.14786">
        <ele>319</ele>
        <time>2018-01-07T13:01:34Z</time>
      </trkpt>
      <trkpt lat="43.53972" lon="6.14794">
        <ele>319</ele>
        <time>2018-01-07T13:01:42Z</time>
      </trkpt>
      <trkpt lat="43.53983" lon="6.14803">
        <ele>320</ele>
        <time>2018-01-07T13:01:58Z</time>
      </trkpt>
      <trkpt lat="43.53976" lon="6.1479">
        <ele>322</ele>
        <time>2018-01-07T13:02:15Z</time>
      </trkpt>
      <trkpt lat="43.53985" lon="6.14777">
        <ele>323</ele>
        <time>2018-01-07T13:02:55Z</time>
      </trkpt>
      <trkpt lat="43.53971" lon="6.14774">
        <ele>322</ele>
        <time>2018-01-07T13:03:45Z</time>
      </trkpt>
      <trkpt lat="43.53961" lon="6.14766">
        <ele>323</ele>
        <time>2018-01-07T13:03:59Z</time>
      </trkpt>
      <trkpt lat="43.5396" lon="6.14752">
        <ele>323</ele>
        <time>2018-01-07T13:04:07Z</time>
      </trkpt>
      <trkpt lat="43.53951" lon="6.14754">
        <ele>324</ele>
        <time>2018-01-07T13:04:11Z</time>
      </trkpt>
      <trkpt lat="43.53945" lon="6.14743">
        <ele>324</ele>
        <time>2018-01-07T13:04:21Z</time>
      </trkpt>
      <trkpt lat="43.53932" lon="6.14737">
        <ele>324</ele>
        <time>2018-01-07T13:04:31Z</time>
      </trkpt>
      <trkpt lat="43.53926" lon="6.14722">
        <ele>324</ele>
        <time>2018-01-07T13:04:42Z</time>
      </trkpt>
      <trkpt lat="43.53912" lon="6.14723">
        <ele>324</ele>
        <time>2018-01-07T13:04:50Z</time>
      </trkpt>
      <trkpt lat="43.53904" lon="6.14714">
        <ele>324</ele>
        <time>2018-01-07T13:04:59Z</time>
      </trkpt>
      <trkpt lat="43.53896" lon="6.14708">
        <ele>324</ele>
        <time>2018-01-07T13:05:05Z</time>
      </trkpt>
      <trkpt lat="43.53883" lon="6.14702">
        <ele>323</ele>
        <time>2018-01-07T13:05:21Z</time>
      </trkpt>
      <trkpt lat="43.53882" lon="6.14688">
        <ele>323</ele>
        <time>2018-01-07T13:05:34Z</time>
      </trkpt>
      <trkpt lat="43.53873" lon="6.14687">
        <ele>323</ele>
        <time>2018-01-07T13:05:42Z</time>
      </trkpt>
      <trkpt lat="43.53857" lon="6.14695">
        <ele>323</ele>
        <time>2018-01-07T13:05:50Z</time>
      </trkpt>
      <trkpt lat="43.53846" lon="6.147">
        <ele>323</ele>
        <time>2018-01-07T13:05:54Z</time>
      </trkpt>
      <trkpt lat="43.53828" lon="6.14713">
        <ele>323</ele>
        <time>2018-01-07T13:06:02Z</time>
      </trkpt>
      <trkpt lat="43.53815" lon="6.14723">
        <ele>323</ele>
        <time>2018-01-07T13:06:06Z</time>
      </trkpt>
      <trkpt lat="43.53806" lon="6.14727">
        <ele>322</ele>
        <time>2018-01-07T13:06:19Z</time>
      </trkpt>
      <trkpt lat="43.53793" lon="6.14731">
        <ele>321</ele>
        <time>2018-01-07T13:06:36Z</time>
      </trkpt>
      <trkpt lat="43.53782" lon="6.14729">
        <ele>322</ele>
        <time>2018-01-07T13:07:00Z</time>
      </trkpt>
      <trkpt lat="43.53772" lon="6.14731">
        <ele>322</ele>
        <time>2018-01-07T13:07:04Z</time>
      </trkpt>
      <trkpt lat="43.5376" lon="6.14735">
        <ele>322</ele>
        <time>2018-01-07T13:07:08Z</time>
      </trkpt>
      <trkpt lat="43.53748" lon="6.14734">
        <ele>322</ele>
        <time>2018-01-07T13:07:23Z</time>
      </trkpt>
      <trkpt lat="43.53735" lon="6.14732">
        <ele>322</ele>
        <time>2018-01-07T13:07:33Z</time>
      </trkpt>
      <trkpt lat="43.53725" lon="6.14723">
        <ele>323</ele>
        <time>2018-01-07T13:07:45Z</time>
      </trkpt>
      <trkpt lat="43.53721" lon="6.14711">
        <ele>323</ele>
        <time>2018-01-07T13:07:55Z</time>
      </trkpt>
      <trkpt lat="43.53708" lon="6.1471">
        <ele>324</ele>
        <time>2018-01-07T13:08:09Z</time>
      </trkpt>
      <trkpt lat="43.53707" lon="6.14709">
        <ele>324</ele>
        <time>2018-01-07T13:08:18Z</time>
      </trkpt>
      <trkpt lat="43.53702" lon="6.14709">
        <ele>324.7</ele>
        <time>2018-01-07T13:08:27Z</time>
      </trkpt>
      <trkpt lat="43.53711" lon="6.14703">
        <ele>324.6</ele>
        <time>2018-01-07T13:08:36Z</time>
      </trkpt>
      <trkpt lat="43.53704" lon="6.14706">
        <ele>322.3</ele>
        <time>2018-01-07T13:10:18Z</time>
      </trkpt>
      <trkpt lat="43.53703" lon="6.14703">
        <ele>322.5</ele>
        <time>2018-01-07T13:10:31Z</time>
      </trkpt>
      <trkpt lat="43.53701" lon="6.14701">
        <ele>322.7</ele>
        <time>2018-01-07T13:10:50Z</time>
      </trkpt>
      <trkpt lat="43.53692" lon="6.14695">
        <ele>323.3</ele>
        <time>2018-01-07T13:11:03Z</time>
      </trkpt>
      <trkpt lat="43.53685" lon="6.14686">
        <ele>323.9</ele>
        <time>2018-01-07T13:11:13Z</time>
      </trkpt>
      <trkpt lat="43.53676" lon="6.14682">
        <ele>324.8</ele>
        <time>2018-01-07T13:11:26Z</time>
      </trkpt>
      <trkpt lat="43.53667" lon="6.14684">
        <ele>326.2</ele>
        <time>2018-01-07T13:11:39Z</time>
      </trkpt>
      <trkpt lat="43.53658" lon="6.1468">
        <ele>328.8</ele>
        <time>2018-01-07T13:11:57Z</time>
      </trkpt>
      <trkpt lat="43.53648" lon="6.14679">
        <ele>329.6</ele>
        <time>2018-01-07T13:12:04Z</time>
      </trkpt>
      <trkpt lat="43.53639" lon="6.14681">
        <ele>330.9</ele>
        <time>2018-01-07T13:12:14Z</time>
      </trkpt>
      <trkpt lat="43.5363" lon="6.14686">
        <ele>332.1</ele>
        <time>2018-01-07T13:12:23Z</time>
      </trkpt>
      <trkpt lat="43.53622" lon="6.14692">
        <ele>333.4</ele>
        <time>2018-01-07T13:12:37Z</time>
      </trkpt>
      <trkpt lat="43.53621" lon="6.14705">
        <ele>335</ele>
        <time>2018-01-07T13:12:49Z</time>
      </trkpt>
      <trkpt lat="43.53612" lon="6.14709">
        <ele>335.8</ele>
        <time>2018-01-07T13:12:56Z</time>
      </trkpt>
      <trkpt lat="43.53603" lon="6.14711">
        <ele>336.4</ele>
        <time>2018-01-07T13:13:02Z</time>
      </trkpt>
      <trkpt lat="43.53599" lon="6.14723">
        <ele>338.6</ele>
        <time>2018-01-07T13:13:26Z</time>
      </trkpt>
      <trkpt lat="43.53593" lon="6.14733">
        <ele>339.6</ele>
        <time>2018-01-07T13:13:41Z</time>
      </trkpt>
      <trkpt lat="43.53598" lon="6.14753">
        <ele>343</ele>
        <time>2018-01-07T13:14:06Z</time>
      </trkpt>
      <trkpt lat="43.5359" lon="6.14746">
        <ele>343.3</ele>
        <time>2018-01-07T13:14:08Z</time>
      </trkpt>
      <trkpt lat="43.5358" lon="6.14748">
        <ele>344.2</ele>
        <time>2018-01-07T13:14:16Z</time>
      </trkpt>
      <trkpt lat="43.53571" lon="6.1475">
        <ele>345</ele>
        <time>2018-01-07T13:14:29Z</time>
      </trkpt>
      <trkpt lat="43.53562" lon="6.14754">
        <ele>346.5</ele>
        <time>2018-01-07T13:14:42Z</time>
      </trkpt>
      <trkpt lat="43.53553" lon="6.14757">
        <ele>349.5</ele>
        <time>2018-01-07T13:15:06Z</time>
      </trkpt>
      <trkpt lat="43.53543" lon="6.14761">
        <ele>350.4</ele>
        <time>2018-01-07T13:15:16Z</time>
      </trkpt>
      <trkpt lat="43.53535" lon="6.14767">
        <ele>351.9</ele>
        <time>2018-01-07T13:15:32Z</time>
      </trkpt>
      <trkpt lat="43.53525" lon="6.14766">
        <ele>352.3</ele>
        <time>2018-01-07T13:15:36Z</time>
      </trkpt>
      <trkpt lat="43.53519" lon="6.14775">
        <ele>355.2</ele>
        <time>2018-01-07T13:16:07Z</time>
      </trkpt>
      <trkpt lat="43.5351" lon="6.14775">
        <ele>356.2</ele>
        <time>2018-01-07T13:16:18Z</time>
      </trkpt>
      <trkpt lat="43.53501" lon="6.14779">
        <ele>358.8</ele>
        <time>2018-01-07T13:16:38Z</time>
      </trkpt>
      <trkpt lat="43.53504" lon="6.14791">
        <ele>359.9</ele>
        <time>2018-01-07T13:16:59Z</time>
      </trkpt>
      <trkpt lat="43.53494" lon="6.14787">
        <ele>360.3</ele>
        <time>2018-01-07T13:17:22Z</time>
      </trkpt>
      <trkpt lat="43.53486" lon="6.14782">
        <ele>360.3</ele>
        <time>2018-01-07T13:17:33Z</time>
      </trkpt>
      <trkpt lat="43.53477" lon="6.14783">
        <ele>360.1</ele>
        <time>2018-01-07T13:17:46Z</time>
      </trkpt>
      <trkpt lat="43.53469" lon="6.14792">
        <ele>359.1</ele>
        <time>2018-01-07T13:18:01Z</time>
      </trkpt>
      <trkpt lat="43.53462" lon="6.14802">
        <ele>358.2</ele>
        <time>2018-01-07T13:18:13Z</time>
      </trkpt>
      <trkpt lat="43.53454" lon="6.14809">
        <ele>357.6</ele>
        <time>2018-01-07T13:18:18Z</time>
      </trkpt>
      <trkpt lat="43.53444" lon="6.14814">
        <ele>356.9</ele>
        <time>2018-01-07T13:18:25Z</time>
      </trkpt>
      <trkpt lat="43.53438" lon="6.14824">
        <ele>356.6</ele>
        <time>2018-01-07T13:18:32Z</time>
      </trkpt>
      <trkpt lat="43.5343" lon="6.14816">
        <ele>356.2</ele>
        <time>2018-01-07T13:18:57Z</time>
      </trkpt>
      <trkpt lat="43.53424" lon="6.14806">
        <ele>356.7</ele>
        <time>2018-01-07T13:19:07Z</time>
      </trkpt>
      <trkpt lat="43.53423" lon="6.14793">
        <ele>356.6</ele>
        <time>2018-01-07T13:19:17Z</time>
      </trkpt>
      <trkpt lat="43.53419" lon="6.14781">
        <ele>355.7</ele>
        <time>2018-01-07T13:19:24Z</time>
      </trkpt>
      <trkpt lat="43.53413" lon="6.14771">
        <ele>354.5</ele>
        <time>2018-01-07T13:19:35Z</time>
      </trkpt>
      <trkpt lat="43.53405" lon="6.14763">
        <ele>353.1</ele>
        <time>2018-01-07T13:19:44Z</time>
      </trkpt>
      <trkpt lat="43.53398" lon="6.14756">
        <ele>351</ele>
        <time>2018-01-07T13:20:06Z</time>
      </trkpt>
      <trkpt lat="43.53389" lon="6.14756">
        <ele>350</ele>
        <time>2018-01-07T13:20:22Z</time>
      </trkpt>
      <trkpt lat="43.5338" lon="6.14761">
        <ele>348.9</ele>
        <time>2018-01-07T13:20:50Z</time>
      </trkpt>
      <trkpt lat="43.53371" lon="6.14759">
        <ele>347.5</ele>
        <time>2018-01-07T13:21:03Z</time>
      </trkpt>
      <trkpt lat="43.53361" lon="6.14761">
        <ele>346.8</ele>
        <time>2018-01-07T13:21:10Z</time>
      </trkpt>
      <trkpt lat="43.53356" lon="6.1475">
        <ele>345.6</ele>
        <time>2018-01-07T13:21:26Z</time>
      </trkpt>
      <trkpt lat="43.53349" lon="6.1474">
        <ele>345.4</ele>
        <time>2018-01-07T13:21:34Z</time>
      </trkpt>
      <trkpt lat="43.53341" lon="6.14731">
        <ele>345.4</ele>
        <time>2018-01-07T13:21:40Z</time>
      </trkpt>
      <trkpt lat="43.53337" lon="6.1472">
        <ele>345.1</ele>
        <time>2018-01-07T13:21:50Z</time>
      </trkpt>
      <trkpt lat="43.53333" lon="6.14709">
        <ele>343.8</ele>
        <time>2018-01-07T13:22:03Z</time>
      </trkpt>
      <trkpt lat="43.53325" lon="6.14701">
        <ele>342.3</ele>
        <time>2018-01-07T13:22:11Z</time>
      </trkpt>
      <trkpt lat="43.53319" lon="6.14691">
        <ele>340.8</ele>
        <time>2018-01-07T13:22:18Z</time>
      </trkpt>
      <trkpt lat="43.53311" lon="6.14686">
        <ele>339.3</ele>
        <time>2018-01-07T13:22:26Z</time>
      </trkpt>
      <trkpt lat="43.53305" lon="6.14676">
        <ele>338</ele>
        <time>2018-01-07T13:22:35Z</time>
      </trkpt>
      <trkpt lat="43.53299" lon="6.14665">
        <ele>336.7</ele>
        <time>2018-01-07T13:22:46Z</time>
      </trkpt>
      <trkpt lat="43.53294" lon="6.14655">
        <ele>335</ele>
        <time>2018-01-07T13:22:57Z</time>
      </trkpt>
      <trkpt lat="43.53287" lon="6.14646">
        <ele>333</ele>
        <time>2018-01-07T13:23:09Z</time>
      </trkpt>
      <trkpt lat="43.53278" lon="6.1464">
        <ele>330.9</ele>
        <time>2018-01-07T13:23:19Z</time>
      </trkpt>
      <trkpt lat="43.53269" lon="6.14635">
        <ele>329</ele>
        <time>2018-01-07T13:23:37Z</time>
      </trkpt>
      <trkpt lat="43.5326" lon="6.1463">
        <ele>327.1</ele>
        <time>2018-01-07T13:23:46Z</time>
      </trkpt>
      <trkpt lat="43.53252" lon="6.14624">
        <ele>325.2</ele>
        <time>2018-01-07T13:23:56Z</time>
      </trkpt>
      <trkpt lat="43.53245" lon="6.14616">
        <ele>323.1</ele>
        <time>2018-01-07T13:24:09Z</time>
      </trkpt>
      <trkpt lat="43.53236" lon="6.1461">
        <ele>321.4</ele>
        <time>2018-01-07T13:24:21Z</time>
      </trkpt>
      <trkpt lat="43.53227" lon="6.14613">
        <ele>318.4</ele>
        <time>2018-01-07T13:25:04Z</time>
      </trkpt>
      <trkpt lat="43.53221" lon="6.14602">
        <ele>317.4</ele>
        <time>2018-01-07T13:25:15Z</time>
      </trkpt>
      <trkpt lat="43.53222" lon="6.14589">
        <ele>316.4</ele>
        <time>2018-01-07T13:25:30Z</time>
      </trkpt>
      <trkpt lat="43.5322" lon="6.14577">
        <ele>315.6</ele>
        <time>2018-01-07T13:25:42Z</time>
      </trkpt>
      <trkpt lat="43.53222" lon="6.14564">
        <ele>313.5</ele>
        <time>2018-01-07T13:26:30Z</time>
      </trkpt>
      <trkpt lat="43.53229" lon="6.14556">
        <ele>312.6</ele>
        <time>2018-01-07T13:26:46Z</time>
      </trkpt>
      <trkpt lat="43.53236" lon="6.14546">
        <ele>312.2</ele>
        <time>2018-01-07T13:26:55Z</time>
      </trkpt>
      <trkpt lat="43.53234" lon="6.14533">
        <ele>311.9</ele>
        <time>2018-01-07T13:27:13Z</time>
      </trkpt>
      <trkpt lat="43.53236" lon="6.1452">
        <ele>311.8</ele>
        <time>2018-01-07T13:27:21Z</time>
      </trkpt>
      <trkpt lat="43.53229" lon="6.14512">
        <ele>311.3</ele>
        <time>2018-01-07T13:27:31Z</time>
      </trkpt>
      <trkpt lat="43.53219" lon="6.14513">
        <ele>311.1</ele>
        <time>2018-01-07T13:27:38Z</time>
      </trkpt>
      <trkpt lat="43.53211" lon="6.14517">
        <ele>311</ele>
        <time>2018-01-07T13:27:50Z</time>
      </trkpt>
      <trkpt lat="43.53202" lon="6.14513">
        <ele>310.9</ele>
        <time>2018-01-07T13:27:58Z</time>
      </trkpt>
      <trkpt lat="43.53193" lon="6.1451">
        <ele>310.7</ele>
        <time>2018-01-07T13:28:07Z</time>
      </trkpt>
      <trkpt lat="43.53184" lon="6.14509">
        <ele>310.4</ele>
        <time>2018-01-07T13:28:15Z</time>
      </trkpt>
      <trkpt lat="43.53176" lon="6.14516">
        <ele>309.9</ele>
        <time>2018-01-07T13:28:27Z</time>
      </trkpt>
      <trkpt lat="43.53168" lon="6.14523">
        <ele>309.6</ele>
        <time>2018-01-07T13:28:36Z</time>
      </trkpt>
      <trkpt lat="43.53158" lon="6.14524">
        <ele>309.5</ele>
        <time>2018-01-07T13:28:43Z</time>
      </trkpt>
      <trkpt lat="43.53149" lon="6.14526">
        <ele>309.5</ele>
        <time>2018-01-07T13:28:50Z</time>
      </trkpt>
      <trkpt lat="43.53139" lon="6.14526">
        <ele>309.3</ele>
        <time>2018-01-07T13:29:01Z</time>
      </trkpt>
      <trkpt lat="43.53129" lon="6.14527">
        <ele>309.3</ele>
        <time>2018-01-07T13:29:08Z</time>
      </trkpt>
      <trkpt lat="43.53121" lon="6.14533">
        <ele>309.8</ele>
        <time>2018-01-07T13:29:24Z</time>
      </trkpt>
      <trkpt lat="43.53111" lon="6.14536">
        <ele>309.8</ele>
        <time>2018-01-07T13:29:29Z</time>
      </trkpt>
      <trkpt lat="43.53101" lon="6.14541">
        <ele>310</ele>
        <time>2018-01-07T13:29:41Z</time>
      </trkpt>
      <trkpt lat="43.53092" lon="6.14545">
        <ele>310.2</ele>
        <time>2018-01-07T13:29:51Z</time>
      </trkpt>
      <trkpt lat="43.53081" lon="6.14547">
        <ele>310.4</ele>
        <time>2018-01-07T13:29:59Z</time>
      </trkpt>
      <trkpt lat="43.53072" lon="6.1455">
        <ele>310.3</ele>
        <time>2018-01-07T13:30:09Z</time>
      </trkpt>
      <trkpt lat="43.53062" lon="6.14553">
        <ele>310.1</ele>
        <time>2018-01-07T13:30:15Z</time>
      </trkpt>
      <trkpt lat="43.53052" lon="6.14556">
        <ele>309.3</ele>
        <time>2018-01-07T13:30:23Z</time>
      </trkpt>
      <trkpt lat="43.53044" lon="6.14564">
        <ele>309.5</ele>
        <time>2018-01-07T13:30:39Z</time>
      </trkpt>
      <trkpt lat="43.53035" lon="6.14568">
        <ele>309.4</ele>
        <time>2018-01-07T13:30:50Z</time>
      </trkpt>
      <trkpt lat="43.53026" lon="6.14572">
        <ele>309.9</ele>
        <time>2018-01-07T13:31:01Z</time>
      </trkpt>
      <trkpt lat="43.53017" lon="6.14577">
        <ele>309.3</ele>
        <time>2018-01-07T13:31:13Z</time>
      </trkpt>
      <trkpt lat="43.53009" lon="6.14579">
        <ele>309.1</ele>
        <time>2018-01-07T13:31:21Z</time>
      </trkpt>
      <trkpt lat="43.53" lon="6.14581">
        <ele>308.9</ele>
        <time>2018-01-07T13:31:29Z</time>
      </trkpt>
      <trkpt lat="43.52991" lon="6.14587">
        <ele>309.2</ele>
        <time>2018-01-07T13:31:51Z</time>
      </trkpt>
      <trkpt lat="43.52989" lon="6.146">
        <ele>309.5</ele>
        <time>2018-01-07T13:32:03Z</time>
      </trkpt>
      <trkpt lat="43.5299" lon="6.14612">
        <ele>309.3</ele>
        <time>2018-01-07T13:32:18Z</time>
      </trkpt>
      <trkpt lat="43.52988" lon="6.14625">
        <ele>309.5</ele>
        <time>2018-01-07T13:32:28Z</time>
      </trkpt>
      <trkpt lat="43.52985" lon="6.14637">
        <ele>309.9</ele>
        <time>2018-01-07T13:32:40Z</time>
      </trkpt>
      <trkpt lat="43.52983" lon="6.14649">
        <ele>309.8</ele>
        <time>2018-01-07T13:32:50Z</time>
      </trkpt>
      <trkpt lat="43.5299" lon="6.14659">
        <ele>309.6</ele>
        <time>2018-01-07T13:32:56Z</time>
      </trkpt>
      <trkpt lat="43.52992" lon="6.14671">
        <ele>308.6</ele>
        <time>2018-01-07T13:33:03Z</time>
      </trkpt>
      <trkpt lat="43.52994" lon="6.14683">
        <ele>308.7</ele>
        <time>2018-01-07T13:33:10Z</time>
      </trkpt>
      <trkpt lat="43.52993" lon="6.14696">
        <ele>309</ele>
        <time>2018-01-07T13:33:19Z</time>
      </trkpt>
      <trkpt lat="43.52995" lon="6.14709">
        <ele>309.1</ele>
        <time>2018-01-07T13:33:27Z</time>
      </trkpt>
      <trkpt lat="43.52998" lon="6.14721">
        <ele>309.3</ele>
        <time>2018-01-07T13:33:36Z</time>
      </trkpt>
      <trkpt lat="43.52997" lon="6.14734">
        <ele>309.5</ele>
        <time>2018-01-07T13:33:44Z</time>
      </trkpt>
      <trkpt lat="43.52997" lon="6.14747">
        <ele>308.7</ele>
        <time>2018-01-07T13:33:54Z</time>
      </trkpt>
      <trkpt lat="43.52997" lon="6.1476">
        <ele>309.7</ele>
        <time>2018-01-07T13:34:05Z</time>
      </trkpt>
      <trkpt lat="43.52991" lon="6.14769">
        <ele>310.9</ele>
        <time>2018-01-07T13:34:16Z</time>
      </trkpt>
      <trkpt lat="43.52987" lon="6.14782">
        <ele>312.2</ele>
        <time>2018-01-07T13:34:25Z</time>
      </trkpt>
      <trkpt lat="43.52978" lon="6.14783">
        <ele>311</ele>
        <time>2018-01-07T13:34:43Z</time>
      </trkpt>
      <trkpt lat="43.52971" lon="6.14792">
        <ele>311.3</ele>
        <time>2018-01-07T13:34:50Z</time>
      </trkpt>
      <trkpt lat="43.52969" lon="6.14805">
        <ele>310.8</ele>
        <time>2018-01-07T13:34:59Z</time>
      </trkpt>
      <trkpt lat="43.52975" lon="6.14815">
        <ele>309.9</ele>
        <time>2018-01-07T13:35:14Z</time>
      </trkpt>
      <trkpt lat="43.52977" lon="6.14827">
        <ele>308.3</ele>
        <time>2018-01-07T13:35:49Z</time>
      </trkpt>
      <trkpt lat="43.52985" lon="6.14832">
        <ele>309.3</ele>
        <time>2018-01-07T13:36:39Z</time>
      </trkpt>
      <trkpt lat="43.52978" lon="6.14825">
        <ele>308.5</ele>
        <time>2018-01-07T13:39:03Z</time>
      </trkpt>
      <trkpt lat="43.52987" lon="6.1483">
        <ele>308.1</ele>
        <time>2018-01-07T13:39:53Z</time>
      </trkpt>
      <trkpt lat="43.52978" lon="6.14822">
        <ele>307.7</ele>
        <time>2018-01-07T13:40:55Z</time>
      </trkpt>
      <trkpt lat="43.52975" lon="6.1481">
        <ele>308.4</ele>
        <time>2018-01-07T13:41:11Z</time>
      </trkpt>
      <trkpt lat="43.52975" lon="6.14798">
        <ele>308.2</ele>
        <time>2018-01-07T13:41:28Z</time>
      </trkpt>
      <trkpt lat="43.52983" lon="6.1479">
        <ele>308</ele>
        <time>2018-01-07T13:42:19Z</time>
      </trkpt>
      <trkpt lat="43.52991" lon="6.14798">
        <ele>308</ele>
        <time>2018-01-07T13:42:47Z</time>
      </trkpt>
      <trkpt lat="43.52998" lon="6.1479">
        <ele>308.2</ele>
        <time>2018-01-07T13:43:08Z</time>
      </trkpt>
      <trkpt lat="43.52999" lon="6.14777">
        <ele>308.3</ele>
        <time>2018-01-07T13:43:22Z</time>
      </trkpt>
      <trkpt lat="43.53005" lon="6.14765">
        <ele>308.1</ele>
        <time>2018-01-07T13:43:34Z</time>
      </trkpt>
      <trkpt lat="43.5301" lon="6.14755">
        <ele>307.7</ele>
        <time>2018-01-07T13:43:47Z</time>
      </trkpt>
      <trkpt lat="43.53006" lon="6.14742">
        <ele>307.9</ele>
        <time>2018-01-07T13:43:57Z</time>
      </trkpt>
      <trkpt lat="43.53004" lon="6.14728">
        <ele>308.3</ele>
        <time>2018-01-07T13:44:06Z</time>
      </trkpt>
      <trkpt lat="43.53005" lon="6.14715">
        <ele>308.8</ele>
        <time>2018-01-07T13:44:15Z</time>
      </trkpt>
      <trkpt lat="43.53001" lon="6.14704">
        <ele>308.7</ele>
        <time>2018-01-07T13:44:25Z</time>
      </trkpt>
      <trkpt lat="43.53001" lon="6.14691">
        <ele>309.5</ele>
        <time>2018-01-07T13:44:36Z</time>
      </trkpt>
      <trkpt lat="43.52998" lon="6.14678">
        <ele>309.3</ele>
        <time>2018-01-07T13:44:50Z</time>
      </trkpt>
      <trkpt lat="43.52996" lon="6.14665">
        <ele>309.2</ele>
        <time>2018-01-07T13:44:59Z</time>
      </trkpt>
      <trkpt lat="43.52994" lon="6.14652">
        <ele>308.9</ele>
        <time>2018-01-07T13:45:09Z</time>
      </trkpt>
      <trkpt lat="43.52997" lon="6.1464">
        <ele>308.7</ele>
        <time>2018-01-07T13:45:20Z</time>
      </trkpt>
      <trkpt lat="43.52996" lon="6.14628">
        <ele>308.2</ele>
        <time>2018-01-07T13:45:32Z</time>
      </trkpt>
      <trkpt lat="43.52996" lon="6.14614">
        <ele>308.5</ele>
        <time>2018-01-07T13:45:42Z</time>
      </trkpt>
      <trkpt lat="43.52995" lon="6.14601">
        <ele>308.4</ele>
        <time>2018-01-07T13:45:52Z</time>
      </trkpt>
      <trkpt lat="43.52985" lon="6.14602">
        <ele>308.6</ele>
        <time>2018-01-07T13:46:02Z</time>
      </trkpt>
      <trkpt lat="43.52977" lon="6.14609">
        <ele>309.4</ele>
        <time>2018-01-07T13:46:16Z</time>
      </trkpt>
      <trkpt lat="43.52969" lon="6.14617">
        <ele>309.4</ele>
        <time>2018-01-07T13:46:23Z</time>
      </trkpt>
      <trkpt lat="43.5296" lon="6.14624">
        <ele>308.8</ele>
        <time>2018-01-07T13:46:36Z</time>
      </trkpt>
      <trkpt lat="43.52952" lon="6.14629">
        <ele>308.4</ele>
        <time>2018-01-07T13:46:40Z</time>
      </trkpt>
      <trkpt lat="43.52946" lon="6.1464">
        <ele>308.2</ele>
        <time>2018-01-07T13:46:42Z</time>
      </trkpt>
      <trkpt lat="43.52941" lon="6.14651">
        <ele>306.9</ele>
        <time>2018-01-07T13:46:57Z</time>
      </trkpt>
      <trkpt lat="43.52932" lon="6.14655">
        <ele>304.7</ele>
        <time>2018-01-07T13:47:17Z</time>
      </trkpt>
      <trkpt lat="43.52927" lon="6.14665">
        <ele>303.3</ele>
        <time>2018-01-07T13:47:40Z</time>
      </trkpt>
      <trkpt lat="43.52922" lon="6.14678">
        <ele>301.4</ele>
        <time>2018-01-07T13:47:58Z</time>
      </trkpt>
      <trkpt lat="43.52918" lon="6.1469">
        <ele>297.8</ele>
        <time>2018-01-07T13:48:17Z</time>
      </trkpt>
      <trkpt lat="43.5291" lon="6.14697">
        <ele>295.2</ele>
        <time>2018-01-07T13:48:30Z</time>
      </trkpt>
      <trkpt lat="43.52906" lon="6.14699">
        <ele>287.8</ele>
        <time>2018-01-07T13:49:16Z</time>
      </trkpt>
      <trkpt lat="43.52901" lon="6.14709">
        <ele>284.7</ele>
        <time>2018-01-07T13:50:26Z</time>
      </trkpt>
      <trkpt lat="43.52897" lon="6.14721">
        <ele>282</ele>
        <time>2018-01-07T13:50:56Z</time>
      </trkpt>
      <trkpt lat="43.52898" lon="6.14731">
        <ele>280.8</ele>
        <time>2018-01-07T13:51:14Z</time>
      </trkpt>
      <trkpt lat="43.52891" lon="6.14744">
        <ele>275.3</ele>
        <time>2018-01-07T13:51:49Z</time>
      </trkpt>
      <trkpt lat="43.52893" lon="6.14759">
        <ele>273.1</ele>
        <time>2018-01-07T13:52:02Z</time>
      </trkpt>
      <trkpt lat="43.5289" lon="6.14771">
        <ele>271.2</ele>
        <time>2018-01-07T13:52:16Z</time>
      </trkpt>
      <trkpt lat="43.52885" lon="6.14782">
        <ele>270.5</ele>
        <time>2018-01-07T13:52:24Z</time>
      </trkpt>
      <trkpt lat="43.52886" lon="6.14785">
        <ele>260.4</ele>
        <time>2018-01-07T13:53:30Z</time>
      </trkpt>
      <trkpt lat="43.52895" lon="6.14792">
        <ele>259.7</ele>
        <time>2018-01-07T13:53:36Z</time>
      </trkpt>
      <trkpt lat="43.52899" lon="6.14804">
        <ele>258.9</ele>
        <time>2018-01-07T13:53:45Z</time>
      </trkpt>
      <trkpt lat="43.52898" lon="6.14817">
        <ele>257.8</ele>
        <time>2018-01-07T13:53:52Z</time>
      </trkpt>
      <trkpt lat="43.529" lon="6.1483">
        <ele>256.5</ele>
        <time>2018-01-07T13:54:01Z</time>
      </trkpt>
      <trkpt lat="43.5291" lon="6.1483">
        <ele>256.8</ele>
        <time>2018-01-07T13:54:49Z</time>
      </trkpt>
      <trkpt lat="43.52919" lon="6.14821">
        <ele>256</ele>
        <time>2018-01-07T13:55:34Z</time>
      </trkpt>
      <trkpt lat="43.52928" lon="6.14818">
        <ele>254</ele>
        <time>2018-01-07T13:55:54Z</time>
      </trkpt>
      <trkpt lat="43.52932" lon="6.14834">
        <ele>252</ele>
        <time>2018-01-07T13:56:06Z</time>
      </trkpt>
      <trkpt lat="43.52943" lon="6.14835">
        <ele>249</ele>
        <time>2018-01-07T13:58:07Z</time>
      </trkpt>
      <trkpt lat="43.52954" lon="6.14838">
        <ele>249</ele>
        <time>2018-01-07T13:58:21Z</time>
      </trkpt>
      <trkpt lat="43.52955" lon="6.14847">
        <ele>254</ele>
        <time>2018-01-07T14:00:44Z</time>
      </trkpt>
      <trkpt lat="43.52952" lon="6.14842">
        <ele>256</ele>
        <time>2018-01-07T14:03:06Z</time>
      </trkpt>
      <trkpt lat="43.5296" lon="6.14851">
        <ele>258</ele>
        <time>2018-01-07T14:04:29Z</time>
      </trkpt>
      <trkpt lat="43.52966" lon="6.1486">
        <ele>255</ele>
        <time>2018-01-07T14:05:09Z</time>
      </trkpt>
      <trkpt lat="43.5297" lon="6.14873">
        <ele>251</ele>
        <time>2018-01-07T14:05:41Z</time>
      </trkpt>
      <trkpt lat="43.52971" lon="6.14875">
        <ele>252.2</ele>
        <time>2018-01-07T14:06:47Z</time>
      </trkpt>
      <trkpt lat="43.5298" lon="6.1488">
        <ele>252.2</ele>
        <time>2018-01-07T14:07:00Z</time>
      </trkpt>
      <trkpt lat="43.52975" lon="6.14891">
        <ele>252.1</ele>
        <time>2018-01-07T14:07:10Z</time>
      </trkpt>
      <trkpt lat="43.52981" lon="6.14901">
        <ele>252.1</ele>
        <time>2018-01-07T14:07:18Z</time>
      </trkpt>
      <trkpt lat="43.52979" lon="6.14913">
        <ele>252.6</ele>
        <time>2018-01-07T14:07:26Z</time>
      </trkpt>
      <trkpt lat="43.52978" lon="6.14927">
        <ele>252.9</ele>
        <time>2018-01-07T14:07:34Z</time>
      </trkpt>
      <trkpt lat="43.52989" lon="6.14928">
        <ele>253</ele>
        <time>2018-01-07T14:07:45Z</time>
      </trkpt>
      <trkpt lat="43.52988" lon="6.14942">
        <ele>255</ele>
        <time>2018-01-07T14:08:02Z</time>
      </trkpt>
      <trkpt lat="43.52999" lon="6.14946">
        <ele>256.8</ele>
        <time>2018-01-07T14:08:14Z</time>
      </trkpt>
      <trkpt lat="43.53002" lon="6.14956">
        <ele>258.5</ele>
        <time>2018-01-07T14:09:56Z</time>
      </trkpt>
      <trkpt lat="43.53006" lon="6.14968">
        <ele>258.8</ele>
        <time>2018-01-07T14:10:06Z</time>
      </trkpt>
      <trkpt lat="43.53008" lon="6.1498">
        <ele>258.4</ele>
        <time>2018-01-07T14:10:13Z</time>
      </trkpt>
      <trkpt lat="43.53012" lon="6.14993">
        <ele>257.7</ele>
        <time>2018-01-07T14:10:19Z</time>
      </trkpt>
      <trkpt lat="43.53012" lon="6.1498">
        <ele>253.7</ele>
        <time>2018-01-07T14:10:59Z</time>
      </trkpt>
      <trkpt lat="43.53003" lon="6.14985">
        <ele>252</ele>
        <time>2018-01-07T14:11:13Z</time>
      </trkpt>
      <trkpt lat="43.53" lon="6.14997">
        <ele>251.1</ele>
        <time>2018-01-07T14:11:20Z</time>
      </trkpt>
      <trkpt lat="43.52989" lon="6.15004">
        <ele>247</ele>
        <time>2018-01-07T14:11:43Z</time>
      </trkpt>
      <trkpt lat="43.52986" lon="6.14991">
        <ele>246.9</ele>
        <time>2018-01-07T14:11:53Z</time>
      </trkpt>
      <trkpt lat="43.52983" lon="6.14979">
        <ele>245.5</ele>
        <time>2018-01-07T14:12:05Z</time>
      </trkpt>
      <trkpt lat="43.52973" lon="6.14976">
        <ele>243.1</ele>
        <time>2018-01-07T14:12:38Z</time>
      </trkpt>
      <trkpt lat="43.52964" lon="6.14972">
        <ele>242.8</ele>
        <time>2018-01-07T14:12:45Z</time>
      </trkpt>
      <trkpt lat="43.52959" lon="6.14961">
        <ele>241.1</ele>
        <time>2018-01-07T14:14:01Z</time>
      </trkpt>
      <trkpt lat="43.52958" lon="6.14949">
        <ele>239.7</ele>
        <time>2018-01-07T14:14:23Z</time>
      </trkpt>
      <trkpt lat="43.52954" lon="6.14937">
        <ele>238.6</ele>
        <time>2018-01-07T14:14:54Z</time>
      </trkpt>
      <trkpt lat="43.52949" lon="6.14927">
        <ele>237.2</ele>
        <time>2018-01-07T14:15:14Z</time>
      </trkpt>
      <trkpt lat="43.52944" lon="6.14915">
        <ele>234</ele>
        <time>2018-01-07T14:16:10Z</time>
      </trkpt>
      <trkpt lat="43.52938" lon="6.14901">
        <ele>234</ele>
        <time>2018-01-07T14:16:30Z</time>
      </trkpt>
      <trkpt lat="43.52901" lon="6.14907">
        <ele>233</ele>
        <time>2018-01-07T14:16:43Z</time>
      </trkpt>
      <trkpt lat="43.52902" lon="6.14905">
        <ele>233.5</ele>
        <time>2018-01-07T14:16:49Z</time>
      </trkpt>
      <trkpt lat="43.52901" lon="6.14912">
        <ele>231</ele>
        <time>2018-01-07T14:17:30Z</time>
      </trkpt>
      <trkpt lat="43.52902" lon="6.14922">
        <ele>230.7</ele>
        <time>2018-01-07T14:19:46Z</time>
      </trkpt>
      <trkpt lat="43.52895" lon="6.14914">
        <ele>230.6</ele>
        <time>2018-01-07T14:20:12Z</time>
      </trkpt>
      <trkpt lat="43.52885" lon="6.14913">
        <ele>230.5</ele>
        <time>2018-01-07T14:20:17Z</time>
      </trkpt>
      <trkpt lat="43.52875" lon="6.14902">
        <ele>229.9</ele>
        <time>2018-01-07T14:20:33Z</time>
      </trkpt>
      <trkpt lat="43.52863" lon="6.149">
        <ele>228</ele>
        <time>2018-01-07T14:20:39Z</time>
      </trkpt>
      <trkpt lat="43.52854" lon="6.149">
        <ele>227</ele>
        <time>2018-01-07T14:20:58Z</time>
      </trkpt>
      <trkpt lat="43.52842" lon="6.14888">
        <ele>227</ele>
        <time>2018-01-07T14:21:04Z</time>
      </trkpt>
      <trkpt lat="43.52833" lon="6.1489">
        <ele>226.7</ele>
        <time>2018-01-07T14:21:18Z</time>
      </trkpt>
      <trkpt lat="43.52823" lon="6.14892">
        <ele>226.6</ele>
        <time>2018-01-07T14:21:24Z</time>
      </trkpt>
      <trkpt lat="43.52822" lon="6.14865">
        <ele>226</ele>
        <time>2018-01-07T14:23:24Z</time>
      </trkpt>
      <trkpt lat="43.5282" lon="6.14885">
        <ele>226</ele>
        <time>2018-01-07T14:25:47Z</time>
      </trkpt>
      <trkpt lat="43.52816" lon="6.14901">
        <ele>226.8</ele>
        <time>2018-01-07T14:26:15Z</time>
      </trkpt>
      <trkpt lat="43.52811" lon="6.14912">
        <ele>224.1</ele>
        <time>2018-01-07T14:26:51Z</time>
      </trkpt>
      <trkpt lat="43.52803" lon="6.14918">
        <ele>223.7</ele>
        <time>2018-01-07T14:26:58Z</time>
      </trkpt>
      <trkpt lat="43.52794" lon="6.14917">
        <ele>223.5</ele>
        <time>2018-01-07T14:27:04Z</time>
      </trkpt>
      <trkpt lat="43.52785" lon="6.1492">
        <ele>224</ele>
        <time>2018-01-07T14:27:13Z</time>
      </trkpt>
      <trkpt lat="43.52775" lon="6.14923">
        <ele>223.6</ele>
        <time>2018-01-07T14:27:22Z</time>
      </trkpt>
      <trkpt lat="43.52766" lon="6.14923">
        <ele>220.6</ele>
        <time>2018-01-07T14:28:18Z</time>
      </trkpt>
      <trkpt lat="43.52755" lon="6.1492">
        <ele>220.5</ele>
        <time>2018-01-07T14:29:25Z</time>
      </trkpt>
      <trkpt lat="43.52715" lon="6.14921">
        <ele>221</ele>
        <time>2018-01-07T14:40:25Z</time>
      </trkpt>
    </trkseg>
  </trk>
</gpx>